LAN502 SCEL-KMIA
Flight info
| Callsign | LAN502 |
|---|---|
| Flight time | 8h 42m |
| Altitude | 28000 |
| Route | N0449F280 DONTI UL780 MOXES/N0468F300 UL780 BUXOS/N0467F320 UL780 TBG UL465 GCM UG448 IKBIX/N0458F330 Y183 PEAKY DCT SNDBR SNDBR3 |
| Aircraft | B763/H-SDE3FGHIM3RWXYZ/LB1 |
Departure
| Time | 2026-05-05 08:25 |
|---|---|
| Airport | Comodoro Arturo Merino Benítez International Airport (SCEL) |
Arrival
| Time | 2026-05-05 17:07 |
|---|---|
| Airport | Miami International Airport (KMIA) |
| Time | Latitude | Longitude | Altitude | Speed | Heading |
|---|---|---|---|---|---|
| 2026-05-05 08:05 | -33.39599 | -70.79798 | 1566 ft | 0 kts | 178° |
| 2026-05-05 08:14 | -33.39590 | -70.79798 | 1566 ft | 2 kts | 178° |
| 2026-05-05 08:14 | -33.39577 | -70.79799 | 1566 ft | 0 kts | 178° |
| 2026-05-05 08:15 | -33.39565 | -70.79800 | 1566 ft | 2 kts | 166° |
| 2026-05-05 08:15 | -33.39552 | -70.79806 | 1566 ft | 2 kts | 147° |
| 2026-05-05 08:15 | -33.39540 | -70.79818 | 1566 ft | 2 kts | 130° |
| 2026-05-05 08:15 | -33.39531 | -70.79833 | 1566 ft | 2 kts | 113° |
| 2026-05-05 08:16 | -33.39527 | -70.79849 | 1566 ft | 2 kts | 96° |
| 2026-05-05 08:16 | -33.39527 | -70.79859 | 1566 ft | 1 kts | 86° |
| 2026-05-05 08:16 | -33.39527 | -70.79863 | 1566 ft | 0 kts | 88° |
| 2026-05-05 08:18 | -33.39527 | -70.79861 | 1566 ft | 1 kts | 88° |
| 2026-05-05 08:18 | -33.39526 | -70.79842 | 1566 ft | 3 kts | 88° |
| 2026-05-05 08:18 | -33.39525 | -70.79800 | 1566 ft | 6 kts | 88° |
| 2026-05-05 08:18 | -33.39523 | -70.79724 | 1566 ft | 11 kts | 88° |
| 2026-05-05 08:19 | -33.39520 | -70.79615 | 1566 ft | 15 kts | 88° |
| 2026-05-05 08:19 | -33.39514 | -70.79470 | 1566 ft | 19 kts | 87° |
| 2026-05-05 08:19 | -33.39508 | -70.79318 | 1566 ft | 17 kts | 88° |
| 2026-05-05 08:19 | -33.39503 | -70.79172 | 1566 ft | 17 kts | 88° |
| 2026-05-05 08:20 | -33.39497 | -70.79022 | 1566 ft | 18 kts | 86° |
| 2026-05-05 08:20 | -33.39465 | -70.78876 | 1566 ft | 18 kts | 44° |
| 2026-05-05 08:20 | -33.39349 | -70.78805 | 1566 ft | 19 kts | 15° |
| 2026-05-05 08:20 | -33.39216 | -70.78798 | 1566 ft | 19 kts | 358° |
| 2026-05-05 08:21 | -33.39077 | -70.78806 | 1566 ft | 20 kts | 358° |
| 2026-05-05 08:21 | -33.38933 | -70.78815 | 1566 ft | 20 kts | 357° |
| 2026-05-05 08:21 | -33.38786 | -70.78822 | 1566 ft | 21 kts | 357° |
| 2026-05-05 08:21 | -33.38587 | -70.78833 | 1566 ft | 21 kts | 357° |
| 2026-05-05 08:22 | -33.38487 | -70.78838 | 1566 ft | 21 kts | 359° |
| 2026-05-05 08:22 | -33.38332 | -70.78845 | 1566 ft | 22 kts | 357° |
| 2026-05-05 08:22 | -33.38176 | -70.78854 | 1566 ft | 22 kts | 358° |
| 2026-05-05 08:22 | -33.38015 | -70.78862 | 1566 ft | 23 kts | 358° |
| 2026-05-05 08:23 | -33.37849 | -70.78871 | 1566 ft | 23 kts | 358° |
| 2026-05-05 08:23 | -33.37686 | -70.78879 | 1566 ft | 19 kts | 5° |
| 2026-05-05 08:23 | -33.37621 | -70.78780 | 1566 ft | 14 kts | 85° |
| 2026-05-05 08:23 | -33.37659 | -70.78677 | 1566 ft | 18 kts | 159° |
| 2026-05-05 08:24 | -33.37911 | -70.78656 | 1566 ft | 59 kts | 178° |
| 2026-05-05 08:24 | -33.38486 | -70.78625 | 1566 ft | 104 kts | 177° |
| 2026-05-05 08:24 | -33.39350 | -70.78578 | 1566 ft | 145 kts | 178° |
| 2026-05-05 08:24 | -33.40491 | -70.78516 | 1567 ft | 181 kts | 178° |
| 2026-05-05 08:25 | -33.41827 | -70.78444 | 1798 ft | 197 kts | 178° |
| 2026-05-05 08:25 | -33.43206 | -70.78363 | 2380 ft | 197 kts | 178° |
| 2026-05-05 08:25 | -33.44552 | -70.78287 | 2891 ft | 199 kts | 178° |
| 2026-05-05 08:25 | -33.45967 | -70.78209 | 3205 ft | 205 kts | 177° |
| 2026-05-05 08:26 | -33.47395 | -70.78131 | 3612 ft | 207 kts | 177° |
| 2026-05-05 08:26 | -33.48853 | -70.78052 | 3946 ft | 212 kts | 178° |
| 2026-05-05 08:26 | -33.50323 | -70.78400 | 4056 ft | 226 kts | 211° |
| 2026-05-05 08:26 | -33.51450 | -70.79750 | 4172 ft | 238 kts | 245° |
| 2026-05-05 08:27 | -33.51791 | -70.81705 | 4379 ft | 250 kts | 278° |
| 2026-05-05 08:27 | -33.51264 | -70.83759 | 4618 ft | 262 kts | 295° |
| 2026-05-05 08:27 | -33.50602 | -70.85774 | 5240 ft | 263 kts | 290° |
| 2026-05-05 08:27 | -33.50008 | -70.87872 | 5625 ft | 275 kts | 289° |
| 2026-05-05 08:28 | -33.49409 | -70.90108 | 6112 ft | 281 kts | 289° |
| 2026-05-05 08:28 | -33.48836 | -70.92321 | 6681 ft | 281 kts | 289° |
| 2026-05-05 08:28 | -33.48267 | -70.94555 | 7293 ft | 283 kts | 289° |
| 2026-05-05 08:28 | -33.47615 | -70.96752 | 7838 ft | 281 kts | 303° |
| 2026-05-05 08:29 | -33.46315 | -70.98474 | 8429 ft | 279 kts | 330° |
| 2026-05-05 08:29 | -33.44561 | -70.99420 | 9057 ft | 278 kts | 340° |
| 2026-05-05 08:29 | -33.42756 | -71.00221 | 9650 ft | 278 kts | 340° |
| 2026-05-05 08:30 | -33.39021 | -71.01780 | 10291 ft | 300 kts | 341° |
| 2026-05-05 08:30 | -33.36987 | -71.02595 | 10418 ft | 316 kts | 341° |
| 2026-05-05 08:30 | -33.34906 | -71.03419 | 11023 ft | 317 kts | 341° |
| 2026-05-05 08:30 | -33.32790 | -71.04253 | 11569 ft | 321 kts | 341° |
| 2026-05-05 08:31 | -33.30675 | -71.05083 | 12118 ft | 324 kts | 340° |
| 2026-05-05 08:31 | -33.28502 | -71.05934 | 12646 ft | 327 kts | 340° |
| 2026-05-05 08:31 | -33.26340 | -71.06780 | 13207 ft | 329 kts | 339° |
| 2026-05-05 08:31 | -33.24170 | -71.07629 | 13674 ft | 333 kts | 339° |
| 2026-05-05 08:32 | -33.21938 | -71.08501 | 14213 ft | 336 kts | 339° |
| 2026-05-05 08:32 | -33.19723 | -71.09365 | 14752 ft | 337 kts | 339° |
| 2026-05-05 08:32 | -33.17500 | -71.10232 | 15236 ft | 341 kts | 339° |
| 2026-05-05 08:32 | -33.15208 | -71.11126 | 15703 ft | 344 kts | 338° |
| 2026-05-05 08:33 | -33.12944 | -71.12008 | 16206 ft | 347 kts | 338° |
| 2026-05-05 08:33 | -33.10632 | -71.12909 | 16716 ft | 349 kts | 338° |
| 2026-05-05 08:33 | -33.08325 | -71.13806 | 17175 ft | 352 kts | 337° |
| 2026-05-05 08:33 | -33.05978 | -71.14719 | 17660 ft | 355 kts | 337° |
| 2026-05-05 08:34 | -33.03628 | -71.15633 | 18066 ft | 359 kts | 337° |
| 2026-05-05 08:34 | -33.01267 | -71.16550 | 18614 ft | 358 kts | 336° |
| 2026-05-05 08:34 | -32.98883 | -71.17477 | 19072 ft | 361 kts | 336° |
| 2026-05-05 08:34 | -32.96505 | -71.18399 | 19589 ft | 361 kts | 336° |
| 2026-05-05 08:35 | -32.94099 | -71.19365 | 20014 ft | 363 kts | 334° |
| 2026-05-05 08:35 | -32.91742 | -71.20416 | 20526 ft | 364 kts | 334° |
| 2026-05-05 08:35 | -32.88568 | -71.21812 | 21173 ft | 365 kts | 333° |
| 2026-05-05 08:35 | -32.86187 | -71.22859 | 21610 ft | 367 kts | 334° |
| 2026-05-05 08:36 | -32.84581 | -71.23566 | 21913 ft | 368 kts | 333° |
| 2026-05-05 08:36 | -32.82148 | -71.24635 | 22336 ft | 370 kts | 333° |
| 2026-05-05 08:36 | -32.78950 | -71.26038 | 22941 ft | 372 kts | 333° |
| 2026-05-05 08:36 | -32.77319 | -71.26754 | 23210 ft | 374 kts | 333° |
| 2026-05-05 08:37 | -32.74059 | -71.28183 | 23724 ft | 378 kts | 333° |
| 2026-05-05 08:37 | -32.72419 | -71.28902 | 24053 ft | 377 kts | 333° |
| 2026-05-05 08:37 | -32.69949 | -71.29981 | 24603 ft | 375 kts | 333° |
| 2026-05-05 08:37 | -32.66671 | -71.31418 | 25040 ft | 380 kts | 333° |
| 2026-05-05 08:38 | -32.65015 | -71.32141 | 25335 ft | 380 kts | 333° |
| 2026-05-05 08:38 | -32.62526 | -71.33229 | 25683 ft | 383 kts | 333° |
| 2026-05-05 08:38 | -32.60032 | -71.34319 | 26024 ft | 385 kts | 333° |
| 2026-05-05 08:38 | -32.56674 | -71.35784 | 26597 ft | 385 kts | 333° |
| 2026-05-05 08:39 | -32.54987 | -71.36520 | 26837 ft | 387 kts | 333° |
| 2026-05-05 08:39 | -32.52449 | -71.37627 | 27280 ft | 386 kts | 333° |
| 2026-05-05 08:39 | -32.49928 | -71.38726 | 27576 ft | 389 kts | 333° |
| 2026-05-05 08:39 | -32.46556 | -71.40195 | 28093 ft | 390 kts | 333° |
| 2026-05-05 08:40 | -32.44859 | -71.40932 | 28366 ft | 390 kts | 332° |
| 2026-05-05 08:40 | -32.42275 | -71.42058 | 28601 ft | 394 kts | 333° |
| 2026-05-05 08:40 | -32.39725 | -71.43165 | 29049 ft | 392 kts | 332° |
| 2026-05-05 08:40 | -32.37170 | -71.44275 | 29363 ft | 394 kts | 332° |
| 2026-05-05 08:41 | -32.33714 | -71.45776 | 29786 ft | 396 kts | 332° |
| 2026-05-05 08:41 | -32.31989 | -71.46523 | 29969 ft | 394 kts | 332° |
| 2026-05-05 08:41 | -32.29415 | -71.47642 | 29922 ft | 400 kts | 332° |
| 2026-05-05 08:42 | -32.24117 | -71.49939 | 29935 ft | 410 kts | 332° |
| 2026-05-05 08:42 | -32.17872 | -71.52640 | 29939 ft | 407 kts | 333° |
| 2026-05-05 08:43 | -32.12580 | -71.54926 | 29936 ft | 401 kts | 332° |
| 2026-05-05 08:43 | -32.08203 | -71.56818 | 29946 ft | 404 kts | 332° |
| 2026-05-05 08:44 | -32.02948 | -71.59084 | 29930 ft | 402 kts | 332° |
| 2026-05-05 08:44 | -31.97676 | -71.61356 | 29933 ft | 402 kts | 332° |
| 2026-05-05 08:45 | -31.92449 | -71.63606 | 29932 ft | 402 kts | 333° |
| 2026-05-05 08:45 | -31.86287 | -71.66253 | 29952 ft | 404 kts | 333° |
| 2026-05-05 08:46 | -31.80980 | -71.68532 | 29950 ft | 404 kts | 333° |
| 2026-05-05 08:46 | -31.76618 | -71.70400 | 29942 ft | 401 kts | 333° |
| 2026-05-05 08:47 | -31.71339 | -71.72662 | 29945 ft | 404 kts | 333° |
| 2026-05-05 08:47 | -31.65174 | -71.75297 | 29935 ft | 404 kts | 333° |
| 2026-05-05 08:48 | -31.59926 | -71.77535 | 29929 ft | 403 kts | 333° |
| 2026-05-05 08:48 | -31.54632 | -71.79793 | 29937 ft | 405 kts | 333° |
| 2026-05-05 08:49 | -31.49340 | -71.82044 | 29946 ft | 405 kts | 333° |
| 2026-05-05 08:49 | -31.44034 | -71.84300 | 29951 ft | 404 kts | 333° |
| 2026-05-05 08:50 | -31.38742 | -71.86546 | 29952 ft | 405 kts | 333° |
| 2026-05-05 08:50 | -31.33438 | -71.88796 | 29957 ft | 405 kts | 333° |
| 2026-05-05 08:51 | -31.28146 | -71.91037 | 29951 ft | 404 kts | 333° |
| 2026-05-05 08:51 | -31.22870 | -71.93269 | 29949 ft | 404 kts | 333° |
| 2026-05-05 08:52 | -31.18463 | -71.95131 | 29949 ft | 404 kts | 333° |
| 2026-05-05 08:52 | -31.12276 | -71.97742 | 29945 ft | 404 kts | 333° |
| 2026-05-05 08:53 | -31.06998 | -71.99967 | 29941 ft | 406 kts | 333° |
| 2026-05-05 08:53 | -31.01670 | -72.02212 | 29945 ft | 407 kts | 333° |
| 2026-05-05 08:54 | -30.96351 | -72.04447 | 29945 ft | 405 kts | 333° |
| 2026-05-05 08:54 | -30.91036 | -72.06679 | 29935 ft | 403 kts | 333° |
| 2026-05-05 08:55 | -30.85766 | -72.08892 | 29951 ft | 406 kts | 333° |
| 2026-05-05 08:55 | -30.80445 | -72.11121 | 29947 ft | 406 kts | 333° |
| 2026-05-05 08:56 | -30.75133 | -72.13344 | 29949 ft | 405 kts | 333° |
| 2026-05-05 08:56 | -30.69823 | -72.15565 | 29953 ft | 407 kts | 334° |
| 2026-05-05 08:57 | -30.64477 | -72.17796 | 29947 ft | 405 kts | 333° |
| 2026-05-05 08:57 | -30.59174 | -72.20009 | 29940 ft | 405 kts | 333° |
| 2026-05-05 08:58 | -30.53877 | -72.22218 | 29949 ft | 407 kts | 334° |
| 2026-05-05 08:58 | -30.48549 | -72.24435 | 29949 ft | 406 kts | 334° |
| 2026-05-05 08:59 | -30.43248 | -72.26639 | 29945 ft | 405 kts | 333° |
| 2026-05-05 08:59 | -30.37915 | -72.28854 | 29944 ft | 405 kts | 333° |
| 2026-05-05 09:00 | -30.32624 | -72.31049 | 29940 ft | 406 kts | 333° |
| 2026-05-05 09:00 | -30.27299 | -72.33256 | 29939 ft | 405 kts | 333° |
| 2026-05-05 09:01 | -30.21986 | -72.35455 | 29944 ft | 404 kts | 333° |
| 2026-05-05 09:01 | -30.16677 | -72.37650 | 29941 ft | 405 kts | 334° |
| 2026-05-05 09:02 | -30.11368 | -72.39843 | 29948 ft | 407 kts | 334° |
| 2026-05-05 09:02 | -30.06039 | -72.42039 | 29940 ft | 405 kts | 333° |
| 2026-05-05 09:03 | -30.00722 | -72.44231 | 29949 ft | 407 kts | 333° |
| 2026-05-05 09:03 | -29.95357 | -72.46440 | 29933 ft | 409 kts | 333° |
| 2026-05-05 09:04 | -29.90004 | -72.48640 | 29943 ft | 408 kts | 333° |
| 2026-05-05 09:04 | -29.84670 | -72.50829 | 29939 ft | 408 kts | 333° |
| 2026-05-05 09:05 | -29.79300 | -72.53033 | 29955 ft | 407 kts | 333° |
| 2026-05-05 09:05 | -29.73979 | -72.55212 | 29951 ft | 407 kts | 333° |
| 2026-05-05 09:06 | -29.68619 | -72.57406 | 29960 ft | 409 kts | 333° |
| 2026-05-05 09:06 | -29.63227 | -72.59610 | 29949 ft | 410 kts | 333° |
| 2026-05-05 09:07 | -29.57877 | -72.61793 | 29951 ft | 407 kts | 333° |
| 2026-05-05 09:07 | -29.52560 | -72.63962 | 29943 ft | 406 kts | 333° |
| 2026-05-05 09:08 | -29.48088 | -72.65785 | 29963 ft | 409 kts | 334° |
| 2026-05-05 09:08 | -29.41805 | -72.68341 | 29962 ft | 411 kts | 334° |
| 2026-05-05 09:09 | -29.36431 | -72.70523 | 29961 ft | 408 kts | 334° |
| 2026-05-05 09:09 | -29.31070 | -72.72701 | 29962 ft | 410 kts | 334° |
| 2026-05-05 09:10 | -29.25675 | -72.74891 | 29964 ft | 411 kts | 334° |
| 2026-05-05 09:10 | -29.20305 | -72.77063 | 29966 ft | 407 kts | 334° |
| 2026-05-05 09:11 | -29.14925 | -72.79242 | 29968 ft | 410 kts | 334° |
| 2026-05-05 09:11 | -29.09558 | -72.81410 | 29957 ft | 409 kts | 334° |
| 2026-05-05 09:12 | -29.04175 | -72.83583 | 29961 ft | 409 kts | 334° |
| 2026-05-05 09:12 | -28.98800 | -72.85751 | 29965 ft | 412 kts | 334° |
| 2026-05-05 09:13 | -28.93374 | -72.87936 | 29956 ft | 410 kts | 333° |
| 2026-05-05 09:13 | -28.88025 | -72.90088 | 29961 ft | 409 kts | 334° |
| 2026-05-05 09:14 | -28.82626 | -72.92259 | 29968 ft | 410 kts | 333° |
| 2026-05-05 09:14 | -28.77243 | -72.94421 | 29968 ft | 412 kts | 334° |
| 2026-05-05 09:15 | -28.71848 | -72.96584 | 29963 ft | 410 kts | 333° |
| 2026-05-05 09:15 | -28.66459 | -72.98743 | 29963 ft | 410 kts | 333° |
| 2026-05-05 09:16 | -28.61061 | -73.00905 | 29969 ft | 411 kts | 334° |
| 2026-05-05 09:16 | -28.55650 | -73.03066 | 29962 ft | 410 kts | 334° |
| 2026-05-05 09:17 | -28.50297 | -73.05203 | 29969 ft | 411 kts | 334° |
| 2026-05-05 09:17 | -28.44885 | -73.07363 | 29964 ft | 412 kts | 334° |
| 2026-05-05 09:18 | -28.39477 | -73.09517 | 29959 ft | 411 kts | 334° |
| 2026-05-05 09:18 | -28.34074 | -73.11668 | 29965 ft | 411 kts | 334° |
| 2026-05-05 09:19 | -28.28681 | -73.13812 | 29962 ft | 409 kts | 333° |
| 2026-05-05 09:19 | -28.23284 | -73.15957 | 29972 ft | 414 kts | 333° |
| 2026-05-05 09:20 | -28.17837 | -73.18116 | 29958 ft | 411 kts | 334° |
| 2026-05-05 09:20 | -28.12441 | -73.20255 | 29964 ft | 409 kts | 334° |
| 2026-05-05 09:21 | -28.07063 | -73.22385 | 29967 ft | 413 kts | 334° |
| 2026-05-05 09:21 | -28.01626 | -73.24535 | 29971 ft | 413 kts | 334° |
| 2026-05-05 09:22 | -27.96198 | -73.26678 | 29961 ft | 411 kts | 333° |
| 2026-05-05 09:22 | -27.90798 | -73.28809 | 29967 ft | 410 kts | 334° |
| 2026-05-05 09:23 | -27.85422 | -73.30930 | 29983 ft | 412 kts | 334° |
| 2026-05-05 09:23 | -27.80000 | -73.33064 | 29983 ft | 412 kts | 333° |
| 2026-05-05 09:24 | -27.74497 | -73.35046 | 29994 ft | 415 kts | 336° |
| 2026-05-05 09:24 | -27.68951 | -73.36912 | 29985 ft | 413 kts | 336° |
| 2026-05-05 09:25 | -27.63447 | -73.38763 | 29980 ft | 412 kts | 336° |
| 2026-05-05 09:25 | -27.57963 | -73.40608 | 29979 ft | 415 kts | 336° |
| 2026-05-05 09:26 | -27.52427 | -73.42466 | 29972 ft | 414 kts | 336° |
| 2026-05-05 09:26 | -27.46914 | -73.44317 | 29973 ft | 413 kts | 336° |
| 2026-05-05 09:27 | -27.41385 | -73.46170 | 29977 ft | 415 kts | 336° |
| 2026-05-05 09:27 | -27.35870 | -73.48016 | 29971 ft | 413 kts | 336° |
| 2026-05-05 09:28 | -27.30333 | -73.49869 | 29978 ft | 415 kts | 336° |
| 2026-05-05 09:28 | -27.24788 | -73.51720 | 29977 ft | 415 kts | 336° |
| 2026-05-05 09:29 | -27.19262 | -73.53565 | 29964 ft | 412 kts | 336° |
| 2026-05-05 09:29 | -27.13775 | -73.55396 | 29965 ft | 413 kts | 336° |
| 2026-05-05 09:30 | -27.08252 | -73.57235 | 29965 ft | 414 kts | 336° |
| 2026-05-05 09:30 | -27.02728 | -73.59073 | 29967 ft | 413 kts | 336° |
| 2026-05-05 09:31 | -26.97191 | -73.60914 | 29960 ft | 413 kts | 336° |
| 2026-05-05 09:31 | -26.91712 | -73.62732 | 29966 ft | 411 kts | 336° |
| 2026-05-05 09:32 | -26.86193 | -73.64565 | 29973 ft | 414 kts | 336° |
| 2026-05-05 09:32 | -26.80664 | -73.66396 | 29979 ft | 414 kts | 336° |
| 2026-05-05 09:33 | -26.75148 | -73.68222 | 29986 ft | 413 kts | 336° |
| 2026-05-05 09:33 | -26.69628 | -73.70048 | 29987 ft | 413 kts | 336° |
| 2026-05-05 09:34 | -26.64104 | -73.71873 | 29988 ft | 414 kts | 336° |
| 2026-05-05 09:34 | -26.58586 | -73.73694 | 29984 ft | 413 kts | 337° |
| 2026-05-05 09:35 | -26.53064 | -73.75515 | 29987 ft | 414 kts | 336° |
| 2026-05-05 09:35 | -26.44792 | -73.78239 | 29985 ft | 413 kts | 337° |
| 2026-05-05 09:36 | -26.39279 | -73.80051 | 29977 ft | 412 kts | 336° |
| 2026-05-05 09:36 | -26.33756 | -73.81868 | 29984 ft | 414 kts | 337° |
| 2026-05-05 09:37 | -26.28221 | -73.83683 | 29981 ft | 411 kts | 336° |
| 2026-05-05 09:37 | -26.22733 | -73.85483 | 29989 ft | 411 kts | 336° |
| 2026-05-05 09:38 | -26.17267 | -73.87270 | 30493 ft | 404 kts | 336° |
| 2026-05-05 09:38 | -26.14597 | -73.88145 | 30992 ft | 401 kts | 336° |
| 2026-05-05 09:38 | -26.11892 | -73.89033 | 31101 ft | 407 kts | 336° |
| 2026-05-05 09:39 | -26.09182 | -73.89919 | 31509 ft | 405 kts | 336° |
| 2026-05-05 09:39 | -26.06466 | -73.90807 | 31776 ft | 407 kts | 336° |
| 2026-05-05 09:39 | -26.03737 | -73.91698 | 32020 ft | 405 kts | 336° |
| 2026-05-05 09:39 | -26.01024 | -73.92585 | 31964 ft | 405 kts | 336° |
| 2026-05-05 09:40 | -25.95667 | -73.94332 | 31979 ft | 398 kts | 336° |
| 2026-05-05 09:40 | -25.90372 | -73.96059 | 31984 ft | 398 kts | 336° |
| 2026-05-05 09:41 | -25.84990 | -73.97815 | 31997 ft | 405 kts | 336° |
| 2026-05-05 09:41 | -25.79583 | -73.99572 | 31985 ft | 404 kts | 336° |
| 2026-05-05 09:42 | -25.74205 | -74.01320 | 31990 ft | 402 kts | 336° |
| 2026-05-05 09:42 | -25.68839 | -74.03065 | 31993 ft | 403 kts | 336° |
| 2026-05-05 09:43 | -25.63450 | -74.04813 | 31988 ft | 404 kts | 336° |
| 2026-05-05 09:43 | -25.58032 | -74.06570 | 31990 ft | 405 kts | 336° |
| 2026-05-05 09:44 | -25.52615 | -74.08323 | 31989 ft | 403 kts | 336° |
| 2026-05-05 09:44 | -25.47247 | -74.10060 | 31985 ft | 403 kts | 336° |
| 2026-05-05 09:45 | -25.41823 | -74.11814 | 31986 ft | 403 kts | 336° |
| 2026-05-05 09:45 | -25.36424 | -74.13557 | 31984 ft | 405 kts | 336° |
| 2026-05-05 09:46 | -25.31029 | -74.15299 | 31980 ft | 406 kts | 336° |
| 2026-05-05 09:46 | -25.25602 | -74.17049 | 31987 ft | 407 kts | 336° |
| 2026-05-05 09:47 | -25.20173 | -74.18796 | 31986 ft | 405 kts | 336° |
| 2026-05-05 09:47 | -25.14745 | -74.20543 | 31983 ft | 405 kts | 337° |
| 2026-05-05 09:48 | -25.09312 | -74.22289 | 31981 ft | 405 kts | 336° |
| 2026-05-05 09:48 | -25.03910 | -74.24023 | 31978 ft | 404 kts | 336° |
| 2026-05-05 09:49 | -24.98486 | -74.25765 | 31979 ft | 406 kts | 336° |
| 2026-05-05 09:49 | -24.93061 | -74.27505 | 31986 ft | 406 kts | 336° |
| 2026-05-05 09:50 | -24.87619 | -74.29247 | 31998 ft | 404 kts | 336° |
| 2026-05-05 09:50 | -24.82211 | -74.30978 | 31997 ft | 406 kts | 336° |
| 2026-05-05 09:51 | -24.76789 | -74.32712 | 31988 ft | 407 kts | 336° |
| 2026-05-05 09:51 | -24.71348 | -74.34449 | 31993 ft | 407 kts | 337° |
| 2026-05-05 09:52 | -24.65861 | -74.36200 | 31986 ft | 407 kts | 336° |
| 2026-05-05 09:52 | -24.60414 | -74.37937 | 31991 ft | 408 kts | 337° |
| 2026-05-05 09:53 | -24.54964 | -74.39673 | 31992 ft | 406 kts | 337° |
| 2026-05-05 09:53 | -24.49528 | -74.41403 | 31991 ft | 406 kts | 337° |
| 2026-05-05 09:54 | -24.44099 | -74.43129 | 31986 ft | 408 kts | 337° |
| 2026-05-05 09:54 | -24.38632 | -74.44867 | 31993 ft | 409 kts | 338° |
| 2026-05-05 09:55 | -24.33164 | -74.46601 | 31990 ft | 408 kts | 337° |
| 2026-05-05 09:55 | -24.27708 | -74.48332 | 31985 ft | 408 kts | 337° |
| 2026-05-05 09:56 | -24.22242 | -74.50080 | 31989 ft | 408 kts | 337° |
| 2026-05-05 09:56 | -24.16790 | -74.51826 | 31988 ft | 407 kts | 337° |
| 2026-05-05 09:57 | -24.11334 | -74.53575 | 31992 ft | 410 kts | 338° |
| 2026-05-05 09:57 | -24.05890 | -74.55315 | 31985 ft | 409 kts | 337° |
| 2026-05-05 09:58 | -24.00420 | -74.57064 | 31980 ft | 407 kts | 337° |
| 2026-05-05 09:58 | -23.94961 | -74.58808 | 31986 ft | 408 kts | 338° |
| 2026-05-05 09:59 | -23.89487 | -74.60556 | 31990 ft | 411 kts | 337° |
| 2026-05-05 09:59 | -23.83970 | -74.62315 | 31990 ft | 411 kts | 338° |
| 2026-05-05 10:00 | -23.78496 | -74.64057 | 31995 ft | 411 kts | 338° |
| 2026-05-05 10:00 | -23.73020 | -74.65800 | 32003 ft | 409 kts | 338° |
| 2026-05-05 10:01 | -23.67518 | -74.67550 | 32009 ft | 411 kts | 338° |
| 2026-05-05 10:01 | -23.62043 | -74.69289 | 32005 ft | 411 kts | 338° |
| 2026-05-05 10:02 | -23.56508 | -74.71045 | 32000 ft | 412 kts | 338° |
| 2026-05-05 10:02 | -23.51016 | -74.72788 | 31998 ft | 413 kts | 338° |
| 2026-05-05 10:03 | -23.45481 | -74.74540 | 31994 ft | 411 kts | 338° |
| 2026-05-05 10:03 | -23.39966 | -74.76287 | 31986 ft | 412 kts | 338° |
| 2026-05-05 10:04 | -23.34475 | -74.78024 | 31998 ft | 414 kts | 338° |
| 2026-05-05 10:04 | -23.28935 | -74.79774 | 31988 ft | 413 kts | 338° |
| 2026-05-05 10:05 | -23.23401 | -74.81522 | 31994 ft | 414 kts | 338° |
| 2026-05-05 10:05 | -23.17862 | -74.83269 | 31985 ft | 414 kts | 338° |
| 2026-05-05 10:06 | -23.12327 | -74.85014 | 31988 ft | 413 kts | 338° |
| 2026-05-05 10:06 | -23.06815 | -74.86750 | 31981 ft | 415 kts | 338° |
| 2026-05-05 10:07 | -23.01256 | -74.88499 | 31984 ft | 414 kts | 339° |
| 2026-05-05 10:07 | -22.95699 | -74.90247 | 31982 ft | 416 kts | 338° |
| 2026-05-05 10:08 | -22.90148 | -74.91990 | 31978 ft | 415 kts | 339° |
| 2026-05-05 10:08 | -22.84589 | -74.93735 | 31989 ft | 414 kts | 339° |
| 2026-05-05 10:09 | -22.79053 | -74.95470 | 31985 ft | 413 kts | 339° |
| 2026-05-05 10:09 | -22.73526 | -74.97203 | 31989 ft | 414 kts | 338° |
| 2026-05-05 10:10 | -22.67960 | -74.98945 | 31985 ft | 415 kts | 338° |
| 2026-05-05 10:10 | -22.62404 | -75.00682 | 31983 ft | 415 kts | 338° |
| 2026-05-05 10:11 | -22.56844 | -75.02421 | 31983 ft | 415 kts | 338° |
| 2026-05-05 10:11 | -22.51289 | -75.04156 | 31986 ft | 415 kts | 339° |
| 2026-05-05 10:12 | -22.45745 | -75.05885 | 31988 ft | 415 kts | 338° |
| 2026-05-05 10:12 | -22.40208 | -75.07610 | 31980 ft | 414 kts | 338° |
| 2026-05-05 10:13 | -22.34668 | -75.09337 | 31986 ft | 415 kts | 339° |
| 2026-05-05 10:13 | -22.29081 | -75.11076 | 31988 ft | 416 kts | 338° |
| 2026-05-05 10:14 | -22.23541 | -75.12798 | 31979 ft | 414 kts | 339° |
| 2026-05-05 10:14 | -22.17972 | -75.14529 | 31987 ft | 415 kts | 339° |
| 2026-05-05 10:15 | -22.12431 | -75.16250 | 31981 ft | 415 kts | 339° |
| 2026-05-05 10:15 | -22.06880 | -75.17971 | 31983 ft | 415 kts | 339° |
| 2026-05-05 10:16 | -22.01323 | -75.19694 | 31980 ft | 415 kts | 339° |
| 2026-05-05 10:16 | -21.95772 | -75.21413 | 31979 ft | 414 kts | 339° |
| 2026-05-05 10:17 | -21.90206 | -75.23135 | 31982 ft | 415 kts | 339° |
| 2026-05-05 10:17 | -21.84637 | -75.24858 | 31985 ft | 415 kts | 339° |
| 2026-05-05 10:18 | -21.79083 | -75.26573 | 31984 ft | 415 kts | 339° |
| 2026-05-05 10:18 | -21.73545 | -75.28283 | 31980 ft | 416 kts | 339° |
| 2026-05-05 10:19 | -21.67967 | -75.30004 | 31980 ft | 416 kts | 339° |
| 2026-05-05 10:19 | -21.62396 | -75.31720 | 31977 ft | 415 kts | 339° |
| 2026-05-05 10:20 | -21.56856 | -75.33426 | 31977 ft | 415 kts | 339° |
| 2026-05-05 10:20 | -21.51258 | -75.35149 | 31979 ft | 416 kts | 339° |
| 2026-05-05 10:21 | -21.45673 | -75.36867 | 31978 ft | 416 kts | 339° |
| 2026-05-05 10:21 | -21.40113 | -75.38574 | 31976 ft | 415 kts | 339° |
| 2026-05-05 10:22 | -21.34555 | -75.40279 | 31974 ft | 415 kts | 339° |
| 2026-05-05 10:22 | -21.29001 | -75.41982 | 31978 ft | 416 kts | 339° |
| 2026-05-05 10:23 | -21.23432 | -75.43688 | 31981 ft | 415 kts | 339° |
| 2026-05-05 10:23 | -21.17864 | -75.45392 | 31979 ft | 415 kts | 339° |
| 2026-05-05 10:24 | -21.12287 | -75.47098 | 31979 ft | 416 kts | 339° |
| 2026-05-05 10:24 | -21.06708 | -75.48803 | 31978 ft | 416 kts | 339° |
| 2026-05-05 10:25 | -21.01157 | -75.50499 | 31979 ft | 414 kts | 339° |
| 2026-05-05 10:25 | -20.95604 | -75.52193 | 31972 ft | 415 kts | 339° |
| 2026-05-05 10:26 | -20.90038 | -75.53890 | 31971 ft | 416 kts | 339° |
| 2026-05-05 10:26 | -20.84483 | -75.55582 | 31978 ft | 416 kts | 339° |
| 2026-05-05 10:27 | -20.78918 | -75.57277 | 31967 ft | 415 kts | 339° |
| 2026-05-05 10:27 | -20.73340 | -75.58974 | 31967 ft | 415 kts | 339° |
| 2026-05-05 10:28 | -20.67769 | -75.60667 | 31966 ft | 415 kts | 340° |
| 2026-05-05 10:28 | -20.62229 | -75.62350 | 31960 ft | 414 kts | 339° |
| 2026-05-05 10:29 | -20.56640 | -75.64047 | 31956 ft | 415 kts | 339° |
| 2026-05-05 10:29 | -20.51088 | -75.65730 | 31964 ft | 415 kts | 340° |
| 2026-05-05 10:30 | -20.45506 | -75.67422 | 31964 ft | 415 kts | 340° |
| 2026-05-05 10:30 | -20.39975 | -75.69096 | 31963 ft | 415 kts | 340° |
| 2026-05-05 10:31 | -20.34381 | -75.70789 | 31963 ft | 416 kts | 340° |
| 2026-05-05 10:31 | -20.28829 | -75.72468 | 31963 ft | 415 kts | 340° |
| 2026-05-05 10:32 | -20.23258 | -75.74151 | 31961 ft | 415 kts | 340° |
| 2026-05-05 10:32 | -20.17684 | -75.75834 | 31963 ft | 415 kts | 340° |
| 2026-05-05 10:33 | -20.12136 | -75.77508 | 31956 ft | 413 kts | 340° |
| 2026-05-05 10:33 | -20.06603 | -75.79176 | 31960 ft | 413 kts | 340° |
| 2026-05-05 10:34 | -20.01065 | -75.80845 | 31964 ft | 414 kts | 340° |
| 2026-05-05 10:34 | -19.95496 | -75.82520 | 31964 ft | 414 kts | 340° |
| 2026-05-05 10:35 | -19.89961 | -75.84186 | 31964 ft | 414 kts | 340° |
| 2026-05-05 10:35 | -19.84387 | -75.85860 | 31970 ft | 414 kts | 340° |
| 2026-05-05 10:36 | -19.78852 | -75.87524 | 31971 ft | 413 kts | 340° |
| 2026-05-05 10:36 | -19.73332 | -75.89181 | 31971 ft | 413 kts | 341° |
| 2026-05-05 10:37 | -19.67766 | -75.90851 | 31970 ft | 414 kts | 341° |
| 2026-05-05 10:37 | -19.62215 | -75.92513 | 31969 ft | 415 kts | 341° |
| 2026-05-05 10:38 | -19.56645 | -75.94182 | 31967 ft | 415 kts | 341° |
| 2026-05-05 10:38 | -19.51074 | -75.95849 | 31965 ft | 414 kts | 341° |
| 2026-05-05 10:39 | -19.45511 | -75.97513 | 31967 ft | 414 kts | 341° |
| 2026-05-05 10:39 | -19.39980 | -75.99165 | 31965 ft | 414 kts | 341° |
| 2026-05-05 10:40 | -19.34420 | -76.00826 | 31963 ft | 414 kts | 341° |
| 2026-05-05 10:40 | -19.28847 | -76.02490 | 31966 ft | 414 kts | 341° |
| 2026-05-05 10:41 | -19.23309 | -76.04141 | 31964 ft | 414 kts | 341° |
| 2026-05-05 10:41 | -19.17749 | -76.05798 | 31965 ft | 414 kts | 341° |
| 2026-05-05 10:42 | -19.09445 | -76.08270 | 31961 ft | 412 kts | 341° |
| 2026-05-05 10:43 | -19.03926 | -76.09913 | 31962 ft | 413 kts | 341° |
| 2026-05-05 10:43 | -18.98359 | -76.11568 | 31961 ft | 415 kts | 341° |
| 2026-05-05 10:44 | -18.92781 | -76.13225 | 31961 ft | 414 kts | 341° |
| 2026-05-05 10:44 | -18.87228 | -76.14874 | 31971 ft | 414 kts | 341° |
| 2026-05-05 10:45 | -18.81652 | -76.16528 | 31969 ft | 414 kts | 341° |
| 2026-05-05 10:45 | -18.76098 | -76.18174 | 31967 ft | 414 kts | 341° |
| 2026-05-05 10:46 | -18.70565 | -76.19813 | 31967 ft | 414 kts | 341° |
| 2026-05-05 10:46 | -18.64983 | -76.21467 | 31966 ft | 416 kts | 342° |
| 2026-05-05 10:47 | -18.59390 | -76.23121 | 31963 ft | 414 kts | 341° |
| 2026-05-05 10:47 | -18.53846 | -76.24760 | 31963 ft | 413 kts | 341° |
| 2026-05-05 10:48 | -18.48296 | -76.26401 | 31964 ft | 415 kts | 342° |
| 2026-05-05 10:48 | -18.42720 | -76.28047 | 31963 ft | 416 kts | 342° |
| 2026-05-05 10:49 | -18.37158 | -76.29688 | 31962 ft | 415 kts | 342° |
| 2026-05-05 10:49 | -18.31583 | -76.31280 | 31967 ft | 416 kts | 342° |
| 2026-05-05 10:50 | -18.25971 | -76.32849 | 31962 ft | 415 kts | 342° |
| 2026-05-05 10:50 | -18.20388 | -76.34407 | 31959 ft | 414 kts | 342° |
| 2026-05-05 10:51 | -18.14803 | -76.35967 | 31961 ft | 416 kts | 343° |
| 2026-05-05 10:51 | -18.09189 | -76.37532 | 31959 ft | 418 kts | 342° |
| 2026-05-05 10:52 | -18.03531 | -76.39109 | 31959 ft | 417 kts | 342° |
| 2026-05-05 10:52 | -17.97912 | -76.40674 | 31957 ft | 417 kts | 343° |
| 2026-05-05 10:53 | -17.92303 | -76.42236 | 31955 ft | 416 kts | 343° |
| 2026-05-05 10:53 | -17.86708 | -76.43791 | 31963 ft | 417 kts | 343° |
| 2026-05-05 10:54 | -17.81099 | -76.45351 | 31955 ft | 417 kts | 343° |
| 2026-05-05 10:54 | -17.75476 | -76.46912 | 31950 ft | 417 kts | 343° |
| 2026-05-05 10:55 | -17.69873 | -76.48468 | 31949 ft | 416 kts | 343° |
| 2026-05-05 10:55 | -17.64243 | -76.50030 | 31949 ft | 416 kts | 343° |
| 2026-05-05 10:56 | -17.58642 | -76.51584 | 31947 ft | 418 kts | 343° |
| 2026-05-05 10:56 | -17.53012 | -76.53143 | 31946 ft | 420 kts | 343° |
| 2026-05-05 10:57 | -17.47358 | -76.54709 | 31945 ft | 418 kts | 343° |
| 2026-05-05 10:57 | -17.41725 | -76.56268 | 31950 ft | 417 kts | 343° |
| 2026-05-05 10:58 | -17.36113 | -76.57819 | 31960 ft | 418 kts | 343° |
| 2026-05-05 10:58 | -17.30464 | -76.59380 | 31960 ft | 416 kts | 343° |
| 2026-05-05 10:59 | -17.24847 | -76.60932 | 31961 ft | 418 kts | 343° |
| 2026-05-05 10:59 | -17.19209 | -76.62489 | 31959 ft | 419 kts | 343° |
| 2026-05-05 11:00 | -17.13559 | -76.64047 | 31959 ft | 418 kts | 343° |
| 2026-05-05 11:00 | -17.07949 | -76.65594 | 31964 ft | 418 kts | 343° |
| 2026-05-05 11:01 | -17.02299 | -76.67150 | 31963 ft | 420 kts | 343° |
| 2026-05-05 11:01 | -16.96602 | -76.68719 | 31963 ft | 421 kts | 343° |
| 2026-05-05 11:02 | -16.90950 | -76.70274 | 31962 ft | 419 kts | 343° |
| 2026-05-05 11:02 | -16.85304 | -76.71827 | 31972 ft | 419 kts | 344° |
| 2026-05-05 11:03 | -16.79675 | -76.73373 | 31971 ft | 420 kts | 343° |
| 2026-05-05 11:03 | -16.73985 | -76.74937 | 31970 ft | 420 kts | 344° |
| 2026-05-05 11:04 | -16.68350 | -76.76483 | 31969 ft | 420 kts | 344° |
| 2026-05-05 11:04 | -16.62677 | -76.78040 | 31968 ft | 421 kts | 344° |
| 2026-05-05 11:05 | -16.56998 | -76.79596 | 31970 ft | 421 kts | 344° |
| 2026-05-05 11:05 | -16.51331 | -76.81149 | 31965 ft | 421 kts | 344° |
| 2026-05-05 11:06 | -16.45642 | -76.82707 | 31968 ft | 421 kts | 344° |
| 2026-05-05 11:06 | -16.39941 | -76.84267 | 31965 ft | 422 kts | 344° |
| 2026-05-05 11:07 | -16.34266 | -76.85819 | 31967 ft | 421 kts | 344° |
| 2026-05-05 11:07 | -16.28584 | -76.87372 | 31964 ft | 421 kts | 344° |
| 2026-05-05 11:08 | -16.22900 | -76.88924 | 31964 ft | 422 kts | 344° |
| 2026-05-05 11:08 | -16.17224 | -76.90474 | 31965 ft | 423 kts | 344° |
| 2026-05-05 11:09 | -16.11528 | -76.92027 | 31963 ft | 422 kts | 344° |
| 2026-05-05 11:09 | -16.05823 | -76.93583 | 31964 ft | 423 kts | 344° |
| 2026-05-05 11:10 | -16.00142 | -76.95132 | 31962 ft | 423 kts | 344° |
| 2026-05-05 11:10 | -15.94448 | -76.96682 | 31961 ft | 422 kts | 344° |
| 2026-05-05 11:11 | -15.88727 | -76.98240 | 31965 ft | 423 kts | 344° |
| 2026-05-05 11:11 | -15.83019 | -76.99792 | 31965 ft | 424 kts | 345° |
| 2026-05-05 11:12 | -15.77322 | -77.01341 | 31964 ft | 423 kts | 344° |
| 2026-05-05 11:12 | -15.71615 | -77.02891 | 31964 ft | 423 kts | 345° |
| 2026-05-05 11:13 | -15.65903 | -77.04443 | 31963 ft | 423 kts | 344° |
| 2026-05-05 11:13 | -15.60203 | -77.05990 | 31961 ft | 424 kts | 345° |
| 2026-05-05 11:14 | -15.54495 | -77.07538 | 31951 ft | 421 kts | 345° |
| 2026-05-05 11:14 | -15.48830 | -77.09074 | 31948 ft | 421 kts | 345° |
| 2026-05-05 11:15 | -15.43130 | -77.10618 | 31948 ft | 423 kts | 345° |
| 2026-05-05 11:15 | -15.37431 | -77.12161 | 31944 ft | 423 kts | 345° |
| 2026-05-05 11:16 | -15.31715 | -77.13708 | 31944 ft | 422 kts | 345° |
| 2026-05-05 11:16 | -15.26024 | -77.15247 | 31944 ft | 422 kts | 345° |
| 2026-05-05 11:17 | -15.20309 | -77.16792 | 31944 ft | 423 kts | 345° |
| 2026-05-05 11:17 | -15.14635 | -77.18325 | 31941 ft | 422 kts | 345° |
| 2026-05-05 11:18 | -15.08922 | -77.19867 | 31944 ft | 423 kts | 345° |
| 2026-05-05 11:18 | -15.03200 | -77.21411 | 31939 ft | 422 kts | 345° |
| 2026-05-05 11:19 | -14.97534 | -77.22940 | 31939 ft | 422 kts | 345° |
| 2026-05-05 11:19 | -14.91819 | -77.24480 | 31938 ft | 423 kts | 345° |
| 2026-05-05 11:20 | -14.86111 | -77.26019 | 31947 ft | 423 kts | 345° |
| 2026-05-05 11:20 | -14.80429 | -77.27548 | 31947 ft | 422 kts | 345° |
| 2026-05-05 11:21 | -14.74707 | -77.29089 | 31946 ft | 422 kts | 345° |
| 2026-05-05 11:21 | -14.69014 | -77.30620 | 31947 ft | 423 kts | 345° |
| 2026-05-05 11:22 | -14.63292 | -77.32158 | 31946 ft | 423 kts | 345° |
| 2026-05-05 11:22 | -14.57579 | -77.33693 | 31947 ft | 423 kts | 345° |
| 2026-05-05 11:23 | -14.51901 | -77.35218 | 31940 ft | 423 kts | 345° |
| 2026-05-05 11:23 | -14.46169 | -77.36756 | 31943 ft | 423 kts | 345° |
| 2026-05-05 11:24 | -14.40476 | -77.38284 | 31944 ft | 424 kts | 345° |
| 2026-05-05 11:24 | -14.34757 | -77.39817 | 31942 ft | 423 kts | 345° |
| 2026-05-05 11:25 | -14.29053 | -77.41346 | 31944 ft | 423 kts | 345° |
| 2026-05-05 11:25 | -14.23333 | -77.42929 | 31943 ft | 424 kts | 345° |
| 2026-05-05 11:26 | -14.17637 | -77.44527 | 31942 ft | 423 kts | 345° |
| 2026-05-05 11:26 | -14.11917 | -77.46130 | 31945 ft | 425 kts | 344° |
| 2026-05-05 11:27 | -14.06191 | -77.47734 | 31952 ft | 425 kts | 345° |
| 2026-05-05 11:27 | -14.00501 | -77.49327 | 31954 ft | 425 kts | 344° |
| 2026-05-05 11:28 | -13.94760 | -77.50933 | 31958 ft | 425 kts | 345° |
| 2026-05-05 11:28 | -13.89066 | -77.52525 | 31957 ft | 424 kts | 345° |
| 2026-05-05 11:29 | -13.83367 | -77.54119 | 31965 ft | 424 kts | 345° |
| 2026-05-05 11:29 | -13.77623 | -77.55724 | 31959 ft | 424 kts | 345° |
| 2026-05-05 11:30 | -13.71932 | -77.57313 | 31956 ft | 425 kts | 345° |
| 2026-05-05 11:30 | -13.66211 | -77.58910 | 31951 ft | 425 kts | 345° |
| 2026-05-05 11:31 | -13.60481 | -77.60508 | 31947 ft | 426 kts | 345° |
| 2026-05-05 11:31 | -13.54763 | -77.62103 | 31942 ft | 424 kts | 345° |
| 2026-05-05 11:32 | -13.49042 | -77.63696 | 31948 ft | 424 kts | 345° |
| 2026-05-05 11:32 | -13.43352 | -77.65282 | 31947 ft | 426 kts | 345° |
| 2026-05-05 11:33 | -13.37606 | -77.66882 | 31943 ft | 426 kts | 345° |
| 2026-05-05 11:33 | -13.31861 | -77.68481 | 31943 ft | 426 kts | 345° |
| 2026-05-05 11:34 | -13.26130 | -77.70074 | 31941 ft | 425 kts | 345° |
| 2026-05-05 11:34 | -13.20414 | -77.71663 | 31944 ft | 424 kts | 345° |
| 2026-05-05 11:35 | -13.14698 | -77.73251 | 31945 ft | 426 kts | 345° |
| 2026-05-05 11:35 | -13.08952 | -77.74847 | 31942 ft | 427 kts | 345° |
| 2026-05-05 11:36 | -13.03218 | -77.76439 | 31941 ft | 427 kts | 345° |
| 2026-05-05 11:36 | -12.97497 | -77.78027 | 31939 ft | 426 kts | 346° |
| 2026-05-05 11:37 | -12.91735 | -77.79624 | 31942 ft | 426 kts | 346° |
| 2026-05-05 11:37 | -12.86025 | -77.81207 | 31950 ft | 426 kts | 345° |
| 2026-05-05 11:38 | -12.80286 | -77.82797 | 31947 ft | 426 kts | 345° |
| 2026-05-05 11:38 | -12.74554 | -77.84384 | 31947 ft | 427 kts | 345° |
| 2026-05-05 11:39 | -12.68778 | -77.85984 | 31948 ft | 427 kts | 346° |
| 2026-05-05 11:39 | -12.63083 | -77.87559 | 31946 ft | 425 kts | 345° |
| 2026-05-05 11:40 | -12.57353 | -77.89144 | 31949 ft | 426 kts | 346° |
| 2026-05-05 11:40 | -12.51596 | -77.90735 | 31946 ft | 427 kts | 346° |
| 2026-05-05 11:41 | -12.45838 | -77.92326 | 31947 ft | 428 kts | 345° |
| 2026-05-05 11:41 | -12.40101 | -77.93911 | 31941 ft | 427 kts | 346° |
| 2026-05-05 11:42 | -12.34355 | -77.95497 | 31943 ft | 425 kts | 346° |
| 2026-05-05 11:42 | -12.28618 | -77.97079 | 31944 ft | 426 kts | 346° |
| 2026-05-05 11:43 | -12.22871 | -77.98664 | 31942 ft | 428 kts | 346° |
| 2026-05-05 11:43 | -12.17121 | -78.00249 | 31940 ft | 426 kts | 346° |
| 2026-05-05 11:44 | -12.11400 | -78.01826 | 31942 ft | 426 kts | 346° |
| 2026-05-05 11:44 | -12.05645 | -78.03411 | 31942 ft | 426 kts | 346° |
| 2026-05-05 11:45 | -11.99932 | -78.04984 | 31941 ft | 426 kts | 346° |
| 2026-05-05 11:45 | -11.94160 | -78.06572 | 31941 ft | 427 kts | 346° |
| 2026-05-05 11:46 | -11.88409 | -78.08154 | 31946 ft | 427 kts | 346° |
| 2026-05-05 11:46 | -11.82673 | -78.09731 | 31945 ft | 426 kts | 346° |
| 2026-05-05 11:47 | -11.76951 | -78.11303 | 31944 ft | 427 kts | 346° |
| 2026-05-05 11:47 | -11.71171 | -78.12891 | 31944 ft | 427 kts | 346° |
| 2026-05-05 11:48 | -11.62561 | -78.15255 | 31943 ft | 428 kts | 346° |
| 2026-05-05 11:48 | -11.56822 | -78.16830 | 31940 ft | 427 kts | 346° |
| 2026-05-05 11:49 | -11.51047 | -78.18413 | 31937 ft | 428 kts | 346° |
| 2026-05-05 11:49 | -11.45269 | -78.19997 | 31939 ft | 428 kts | 346° |
| 2026-05-05 11:50 | -11.39521 | -78.21574 | 31936 ft | 428 kts | 346° |
| 2026-05-05 11:50 | -11.33771 | -78.23148 | 31943 ft | 427 kts | 346° |
| 2026-05-05 11:51 | -11.28001 | -78.24728 | 31951 ft | 428 kts | 346° |
| 2026-05-05 11:51 | -11.22241 | -78.26305 | 31948 ft | 428 kts | 346° |
| 2026-05-05 11:52 | -11.16470 | -78.27883 | 31948 ft | 427 kts | 345° |
| 2026-05-05 11:52 | -11.10723 | -78.29456 | 31943 ft | 428 kts | 346° |
| 2026-05-05 11:53 | -11.04947 | -78.31035 | 31947 ft | 431 kts | 346° |
| 2026-05-05 11:53 | -10.99140 | -78.32621 | 31944 ft | 430 kts | 346° |
| 2026-05-05 11:54 | -10.93336 | -78.34207 | 31941 ft | 428 kts | 346° |
| 2026-05-05 11:54 | -10.87594 | -78.35774 | 31955 ft | 429 kts | 346° |
| 2026-05-05 11:55 | -10.81794 | -78.37357 | 31954 ft | 430 kts | 345° |
| 2026-05-05 11:55 | -10.75994 | -78.38940 | 31951 ft | 430 kts | 346° |
| 2026-05-05 11:56 | -10.70196 | -78.40522 | 31954 ft | 431 kts | 346° |
| 2026-05-05 11:56 | -10.64402 | -78.42101 | 31955 ft | 432 kts | 346° |
| 2026-05-05 11:57 | -10.58609 | -78.43679 | 31949 ft | 428 kts | 346° |
| 2026-05-05 11:57 | -10.52831 | -78.45253 | 31957 ft | 429 kts | 346° |
| 2026-05-05 11:58 | -10.47028 | -78.46833 | 31952 ft | 430 kts | 346° |
| 2026-05-05 11:58 | -10.41256 | -78.48404 | 31951 ft | 430 kts | 346° |
| 2026-05-05 11:59 | -10.35429 | -78.49990 | 31953 ft | 431 kts | 346° |
| 2026-05-05 11:59 | -10.29646 | -78.51562 | 31952 ft | 431 kts | 346° |
| 2026-05-05 12:00 | -10.23839 | -78.53141 | 31949 ft | 430 kts | 346° |
| 2026-05-05 12:00 | -10.18025 | -78.54720 | 31948 ft | 431 kts | 346° |
| 2026-05-05 12:01 | -10.12206 | -78.56302 | 31947 ft | 432 kts | 346° |
| 2026-05-05 12:01 | -10.06419 | -78.57873 | 31943 ft | 431 kts | 346° |
| 2026-05-05 12:02 | -10.00608 | -78.59450 | 31945 ft | 432 kts | 346° |
| 2026-05-05 12:02 | -9.94761 | -78.61037 | 31946 ft | 432 kts | 346° |
| 2026-05-05 12:03 | -9.88950 | -78.62614 | 31957 ft | 433 kts | 346° |
| 2026-05-05 12:03 | -9.83103 | -78.64199 | 31968 ft | 435 kts | 346° |
| 2026-05-05 12:04 | -9.77239 | -78.65789 | 31958 ft | 434 kts | 346° |
| 2026-05-05 12:04 | -9.71419 | -78.67365 | 31960 ft | 432 kts | 346° |
| 2026-05-05 12:05 | -9.65597 | -78.68943 | 31976 ft | 435 kts | 346° |
| 2026-05-05 12:05 | -9.59716 | -78.70535 | 31967 ft | 436 kts | 346° |
| 2026-05-05 12:06 | -9.53859 | -78.72122 | 31972 ft | 435 kts | 346° |
| 2026-05-05 12:06 | -9.47981 | -78.73712 | 31957 ft | 435 kts | 346° |
| 2026-05-05 12:07 | -9.42137 | -78.75294 | 31965 ft | 433 kts | 346° |
| 2026-05-05 12:07 | -9.36268 | -78.76881 | 31975 ft | 436 kts | 347° |
| 2026-05-05 12:08 | -9.30435 | -78.78458 | 31973 ft | 436 kts | 346° |
| 2026-05-05 12:08 | -9.24520 | -78.80057 | 31965 ft | 436 kts | 346° |
| 2026-05-05 12:09 | -9.18628 | -78.81648 | 31975 ft | 437 kts | 347° |
| 2026-05-05 12:09 | -9.12754 | -78.83234 | 31943 ft | 438 kts | 346° |
| 2026-05-05 12:10 | -9.06845 | -78.84830 | 31962 ft | 435 kts | 346° |
| 2026-05-05 12:10 | -9.00999 | -78.86408 | 31957 ft | 436 kts | 346° |
| 2026-05-05 12:11 | -8.95099 | -78.88000 | 31965 ft | 439 kts | 347° |
| 2026-05-05 12:11 | -8.89221 | -78.89585 | 31965 ft | 437 kts | 347° |
| 2026-05-05 12:12 | -8.83299 | -78.91181 | 31984 ft | 438 kts | 347° |
| 2026-05-05 12:12 | -8.77415 | -78.92768 | 31959 ft | 439 kts | 346° |
| 2026-05-05 12:13 | -8.71518 | -78.94357 | 31967 ft | 437 kts | 347° |
| 2026-05-05 12:13 | -8.65615 | -78.95947 | 31970 ft | 438 kts | 347° |
| 2026-05-05 12:14 | -8.59675 | -78.97546 | 31970 ft | 441 kts | 347° |
| 2026-05-05 12:14 | -8.53715 | -78.99151 | 31946 ft | 441 kts | 347° |
| 2026-05-05 12:15 | -8.47792 | -79.00745 | 31976 ft | 439 kts | 347° |
| 2026-05-05 12:15 | -8.41884 | -79.02334 | 31942 ft | 440 kts | 347° |
| 2026-05-05 12:16 | -8.35948 | -79.03930 | 31932 ft | 439 kts | 347° |
| 2026-05-05 12:16 | -8.30039 | -79.05519 | 31937 ft | 440 kts | 347° |
| 2026-05-05 12:17 | -8.24086 | -79.07119 | 31938 ft | 442 kts | 347° |
| 2026-05-05 12:17 | -8.18139 | -79.08717 | 31945 ft | 441 kts | 347° |
| 2026-05-05 12:18 | -8.12165 | -79.10321 | 31945 ft | 441 kts | 347° |
| 2026-05-05 12:18 | -8.06190 | -79.11526 | 31965 ft | 440 kts | 354° |
| 2026-05-05 12:19 | -8.00093 | -79.12324 | 31956 ft | 441 kts | 354° |
| 2026-05-05 12:19 | -7.93980 | -79.13107 | 31953 ft | 440 kts | 354° |
| 2026-05-05 12:20 | -7.87874 | -79.13881 | 31975 ft | 441 kts | 354° |
| 2026-05-05 12:20 | -7.81767 | -79.14654 | 31999 ft | 441 kts | 355° |
| 2026-05-05 12:21 | -7.75680 | -79.15422 | 31984 ft | 440 kts | 354° |
| 2026-05-05 12:21 | -7.69589 | -79.16193 | 32020 ft | 438 kts | 355° |
| 2026-05-05 12:22 | -7.63550 | -79.16955 | 32060 ft | 439 kts | 355° |
| 2026-05-05 12:22 | -7.57442 | -79.17725 | 32069 ft | 439 kts | 355° |
| 2026-05-05 12:23 | -7.51365 | -79.18492 | 32098 ft | 439 kts | 355° |
| 2026-05-05 12:23 | -7.45283 | -79.19259 | 32113 ft | 440 kts | 355° |
| 2026-05-05 12:24 | -7.39198 | -79.20026 | 32110 ft | 439 kts | 355° |
| 2026-05-05 12:24 | -7.33160 | -79.20788 | 32111 ft | 438 kts | 355° |
| 2026-05-05 12:25 | -7.27081 | -79.21555 | 32124 ft | 438 kts | 355° |
| 2026-05-05 12:25 | -7.21044 | -79.22315 | 32140 ft | 439 kts | 355° |
| 2026-05-05 12:26 | -7.14942 | -79.23083 | 32156 ft | 440 kts | 355° |
| 2026-05-05 12:26 | -7.08855 | -79.23850 | 32168 ft | 439 kts | 355° |
| 2026-05-05 12:27 | -7.02798 | -79.24612 | 32207 ft | 436 kts | 355° |
| 2026-05-05 12:27 | -6.96734 | -79.25375 | 32184 ft | 437 kts | 355° |
| 2026-05-05 12:28 | -6.90681 | -79.26138 | 32209 ft | 438 kts | 355° |
| 2026-05-05 12:28 | -6.84585 | -79.26904 | 32188 ft | 439 kts | 355° |
| 2026-05-05 12:29 | -6.78514 | -79.27668 | 32196 ft | 439 kts | 355° |
| 2026-05-05 12:29 | -6.72405 | -79.28436 | 32175 ft | 439 kts | 355° |
| 2026-05-05 12:30 | -6.66331 | -79.29200 | 32187 ft | 438 kts | 355° |
| 2026-05-05 12:30 | -6.60283 | -79.29960 | 32216 ft | 437 kts | 355° |
| 2026-05-05 12:31 | -6.54226 | -79.30720 | 32232 ft | 439 kts | 355° |
| 2026-05-05 12:31 | -6.48134 | -79.31486 | 32225 ft | 441 kts | 355° |
| 2026-05-05 12:32 | -6.42063 | -79.32248 | 32263 ft | 439 kts | 355° |
| 2026-05-05 12:32 | -6.35975 | -79.33013 | 32321 ft | 438 kts | 355° |
| 2026-05-05 12:33 | -6.29896 | -79.33775 | 32374 ft | 440 kts | 355° |
| 2026-05-05 12:33 | -6.23794 | -79.34542 | 32446 ft | 440 kts | 355° |
| 2026-05-05 12:34 | -6.17721 | -79.35304 | 32411 ft | 439 kts | 356° |
| 2026-05-05 12:34 | -6.11641 | -79.36066 | 32369 ft | 438 kts | 355° |
| 2026-05-05 12:35 | -6.05583 | -79.36826 | 32332 ft | 441 kts | 356° |
| 2026-05-05 12:35 | -5.99485 | -79.37590 | 32295 ft | 441 kts | 356° |
| 2026-05-05 12:36 | -5.93364 | -79.38357 | 32311 ft | 439 kts | 355° |
| 2026-05-05 12:36 | -5.87283 | -79.39120 | 32337 ft | 440 kts | 355° |
| 2026-05-05 12:37 | -5.81147 | -79.39888 | 32361 ft | 441 kts | 356° |
| 2026-05-05 12:37 | -5.75086 | -79.40648 | 32385 ft | 440 kts | 355° |
| 2026-05-05 12:38 | -5.68958 | -79.41415 | 32411 ft | 439 kts | 355° |
| 2026-05-05 12:38 | -5.62865 | -79.42178 | 32441 ft | 441 kts | 355° |
| 2026-05-05 12:39 | -5.56755 | -79.42943 | 32448 ft | 442 kts | 355° |
| 2026-05-05 12:39 | -5.50657 | -79.43707 | 32464 ft | 440 kts | 355° |
| 2026-05-05 12:40 | -5.44576 | -79.44467 | 32455 ft | 439 kts | 355° |
| 2026-05-05 12:40 | -5.38486 | -79.45229 | 32431 ft | 442 kts | 355° |
| 2026-05-05 12:41 | -5.32351 | -79.45997 | 32421 ft | 441 kts | 355° |
| 2026-05-05 12:41 | -5.26272 | -79.46757 | 32405 ft | 441 kts | 355° |
| 2026-05-05 12:42 | -5.20165 | -79.47520 | 32419 ft | 442 kts | 355° |
| 2026-05-05 12:42 | -5.14026 | -79.48288 | 32442 ft | 440 kts | 355° |
| 2026-05-05 12:43 | -5.07950 | -79.49047 | 32485 ft | 440 kts | 355° |
| 2026-05-05 12:43 | -5.01872 | -79.49806 | 32526 ft | 440 kts | 355° |
| 2026-05-05 12:44 | -4.95759 | -79.50570 | 32536 ft | 442 kts | 355° |
| 2026-05-05 12:44 | -4.89611 | -79.51338 | 32522 ft | 443 kts | 355° |
| 2026-05-05 12:45 | -4.83489 | -79.52103 | 32509 ft | 441 kts | 355° |
| 2026-05-05 12:45 | -4.77380 | -79.52866 | 32477 ft | 438 kts | 356° |
| 2026-05-05 12:46 | -4.71312 | -79.53623 | 32445 ft | 440 kts | 356° |
| 2026-05-05 12:46 | -4.65211 | -79.54384 | 32367 ft | 441 kts | 355° |
| 2026-05-05 12:47 | -4.59098 | -79.55148 | 32296 ft | 441 kts | 355° |
| 2026-05-05 12:47 | -4.53021 | -79.55906 | 32257 ft | 440 kts | 355° |
| 2026-05-05 12:48 | -4.46943 | -79.56678 | 32222 ft | 439 kts | 355° |
| 2026-05-05 12:48 | -4.40860 | -79.57459 | 32245 ft | 439 kts | 355° |
| 2026-05-05 12:49 | -4.34771 | -79.58241 | 32254 ft | 440 kts | 355° |
| 2026-05-05 12:49 | -4.28679 | -79.59023 | 32271 ft | 440 kts | 355° |
| 2026-05-05 12:50 | -4.22563 | -79.59808 | 32267 ft | 439 kts | 355° |
| 2026-05-05 12:50 | -4.16509 | -79.60586 | 32237 ft | 440 kts | 355° |
| 2026-05-05 12:51 | -4.10429 | -79.61366 | 32233 ft | 441 kts | 355° |
| 2026-05-05 12:51 | -4.04307 | -79.62151 | 32214 ft | 440 kts | 356° |
| 2026-05-05 12:52 | -3.98226 | -79.62932 | 32204 ft | 440 kts | 355° |
| 2026-05-05 12:52 | -3.92108 | -79.63716 | 32204 ft | 440 kts | 355° |
| 2026-05-05 12:53 | -3.85985 | -79.64502 | 32169 ft | 439 kts | 356° |
| 2026-05-05 12:53 | -3.79908 | -79.65280 | 32158 ft | 441 kts | 355° |
| 2026-05-05 12:54 | -3.70773 | -79.66453 | 32180 ft | 441 kts | 356° |
| 2026-05-05 12:55 | -3.64688 | -79.67232 | 32194 ft | 440 kts | 356° |
| 2026-05-05 12:55 | -3.58585 | -79.68014 | 32195 ft | 440 kts | 356° |
| 2026-05-05 12:56 | -3.52485 | -79.68796 | 32232 ft | 440 kts | 356° |
| 2026-05-05 12:56 | -3.46376 | -79.69579 | 32174 ft | 442 kts | 356° |
| 2026-05-05 12:57 | -3.40273 | -79.70361 | 32171 ft | 441 kts | 355° |
| 2026-05-05 12:57 | -3.34168 | -79.71143 | 32115 ft | 442 kts | 356° |
| 2026-05-05 12:58 | -3.28050 | -79.71927 | 32052 ft | 441 kts | 356° |
| 2026-05-05 12:58 | -3.21932 | -79.72710 | 32061 ft | 440 kts | 356° |
| 2026-05-05 12:59 | -3.15821 | -79.73492 | 32018 ft | 443 kts | 356° |
| 2026-05-05 12:59 | -3.09704 | -79.74276 | 31996 ft | 443 kts | 356° |
| 2026-05-05 13:00 | -3.00500 | -79.75455 | 31971 ft | 442 kts | 356° |
| 2026-05-05 13:01 | -2.88304 | -79.77015 | 31944 ft | 440 kts | 356° |
| 2026-05-05 13:01 | -2.82199 | -79.77797 | 31960 ft | 440 kts | 356° |
| 2026-05-05 13:02 | -2.76070 | -79.78581 | 31986 ft | 444 kts | 356° |
| 2026-05-05 13:02 | -2.69930 | -79.79369 | 31942 ft | 443 kts | 356° |
| 2026-05-05 13:03 | -2.63797 | -79.80155 | 31940 ft | 440 kts | 356° |
| 2026-05-05 13:03 | -2.57726 | -79.80933 | 31931 ft | 441 kts | 356° |
| 2026-05-05 13:04 | -2.51615 | -79.81716 | 31936 ft | 440 kts | 356° |
| 2026-05-05 13:04 | -2.45494 | -79.82501 | 31936 ft | 441 kts | 356° |
| 2026-05-05 13:05 | -2.39422 | -79.83277 | 31932 ft | 440 kts | 356° |
| 2026-05-05 13:05 | -2.33305 | -79.84061 | 31922 ft | 441 kts | 356° |
| 2026-05-05 13:06 | -2.27241 | -79.84838 | 31926 ft | 440 kts | 356° |
| 2026-05-05 13:06 | -2.21135 | -79.85621 | 31904 ft | 441 kts | 356° |
| 2026-05-05 13:07 | -2.15040 | -79.86401 | 31914 ft | 440 kts | 356° |
| 2026-05-05 13:07 | -2.08927 | -79.86627 | 31917 ft | 438 kts | 4° |
| 2026-05-05 13:08 | -2.02813 | -79.86587 | 31906 ft | 439 kts | 4° |
| 2026-05-05 13:08 | -1.96713 | -79.86534 | 31911 ft | 436 kts | 4° |
| 2026-05-05 13:09 | -1.90633 | -79.86478 | 31927 ft | 437 kts | 4° |
| 2026-05-05 13:09 | -1.84491 | -79.86420 | 31934 ft | 439 kts | 4° |
| 2026-05-05 13:10 | -1.78383 | -79.86362 | 31927 ft | 437 kts | 4° |
| 2026-05-05 13:10 | -1.73165 | -79.86312 | 31919 ft | 436 kts | 4° |
| 2026-05-05 13:11 | -1.67056 | -79.86254 | 31929 ft | 437 kts | 4° |
| 2026-05-05 13:11 | -1.60952 | -79.86196 | 31933 ft | 438 kts | 4° |
| 2026-05-05 13:12 | -1.54835 | -79.86137 | 31934 ft | 438 kts | 4° |
| 2026-05-05 13:12 | -1.48725 | -79.86080 | 31922 ft | 438 kts | 4° |
| 2026-05-05 13:13 | -1.42599 | -79.86022 | 31935 ft | 437 kts | 4° |
| 2026-05-05 13:13 | -1.36489 | -79.85964 | 31953 ft | 439 kts | 4° |
| 2026-05-05 13:14 | -1.30382 | -79.85906 | 31943 ft | 440 kts | 4° |
| 2026-05-05 13:14 | -1.24259 | -79.85849 | 31943 ft | 440 kts | 4° |
| 2026-05-05 13:15 | -1.18096 | -79.85791 | 31940 ft | 438 kts | 4° |
| 2026-05-05 13:15 | -1.12004 | -79.85732 | 31955 ft | 439 kts | 4° |
| 2026-05-05 13:16 | -1.05863 | -79.85674 | 31948 ft | 438 kts | 4° |
| 2026-05-05 13:16 | -0.99753 | -79.85616 | 31955 ft | 438 kts | 4° |
| 2026-05-05 13:17 | -0.93639 | -79.85559 | 31964 ft | 442 kts | 4° |
| 2026-05-05 13:17 | -0.87453 | -79.85500 | 31973 ft | 440 kts | 4° |
| 2026-05-05 13:18 | -0.81312 | -79.85443 | 31948 ft | 439 kts | 4° |
| 2026-05-05 13:18 | -0.75206 | -79.85384 | 31963 ft | 438 kts | 4° |
| 2026-05-05 13:19 | -0.69063 | -79.85326 | 31968 ft | 439 kts | 4° |
| 2026-05-05 13:19 | -0.62924 | -79.85268 | 31977 ft | 440 kts | 4° |
| 2026-05-05 13:20 | -0.56772 | -79.85210 | 31973 ft | 440 kts | 4° |
| 2026-05-05 13:20 | -0.50647 | -79.85152 | 31972 ft | 441 kts | 4° |
| 2026-05-05 13:21 | -0.44470 | -79.85094 | 31961 ft | 441 kts | 4° |
| 2026-05-05 13:21 | -0.38333 | -79.85036 | 31975 ft | 440 kts | 4° |
| 2026-05-05 13:22 | -0.32168 | -79.84978 | 31969 ft | 440 kts | 4° |
| 2026-05-05 13:22 | -0.26043 | -79.84920 | 31978 ft | 441 kts | 4° |
| 2026-05-05 13:23 | -0.19845 | -79.84861 | 31962 ft | 442 kts | 4° |
| 2026-05-05 13:23 | -0.13718 | -79.84803 | 31962 ft | 442 kts | 4° |
| 2026-05-05 13:24 | -0.07527 | -79.84745 | 31962 ft | 443 kts | 4° |
| 2026-05-05 13:24 | -0.01335 | -79.84686 | 31959 ft | 442 kts | 4° |
| 2026-05-05 13:25 | 0.04815 | -79.84628 | 31956 ft | 441 kts | 4° |
| 2026-05-05 13:25 | 0.11015 | -79.84570 | 31953 ft | 442 kts | 4° |
| 2026-05-05 13:26 | 0.17186 | -79.84511 | 31954 ft | 443 kts | 4° |
| 2026-05-05 13:26 | 0.23379 | -79.84452 | 31949 ft | 443 kts | 4° |
| 2026-05-05 13:27 | 0.29566 | -79.84393 | 31953 ft | 443 kts | 4° |
| 2026-05-05 13:27 | 0.35742 | -79.84335 | 31951 ft | 443 kts | 4° |
| 2026-05-05 13:28 | 0.41903 | -79.84277 | 31955 ft | 443 kts | 4° |
| 2026-05-05 13:28 | 0.48088 | -79.84219 | 31953 ft | 442 kts | 4° |
| 2026-05-05 13:29 | 0.54238 | -79.84161 | 31953 ft | 443 kts | 4° |
| 2026-05-05 13:29 | 0.60419 | -79.84102 | 31946 ft | 444 kts | 3° |
| 2026-05-05 13:30 | 0.66637 | -79.84043 | 31939 ft | 445 kts | 3° |
| 2026-05-05 13:30 | 0.72845 | -79.83984 | 31936 ft | 444 kts | 4° |
| 2026-05-05 13:31 | 0.79007 | -79.83926 | 31929 ft | 442 kts | 3° |
| 2026-05-05 13:31 | 0.85184 | -79.83868 | 31923 ft | 442 kts | 3° |
| 2026-05-05 13:32 | 0.91346 | -79.83810 | 31919 ft | 444 kts | 3° |
| 2026-05-05 13:32 | 0.97562 | -79.83751 | 31913 ft | 445 kts | 3° |
| 2026-05-05 13:33 | 1.03795 | -79.83691 | 31910 ft | 446 kts | 3° |
| 2026-05-05 13:33 | 1.10020 | -79.83633 | 31907 ft | 444 kts | 3° |
| 2026-05-05 13:34 | 1.16211 | -79.83575 | 31908 ft | 443 kts | 3° |
| 2026-05-05 13:34 | 1.22404 | -79.83516 | 31910 ft | 445 kts | 3° |
| 2026-05-05 13:35 | 1.28623 | -79.83456 | 31907 ft | 447 kts | 3° |
| 2026-05-05 13:35 | 1.34869 | -79.83398 | 31906 ft | 447 kts | 3° |
| 2026-05-05 13:36 | 1.41105 | -79.83338 | 31905 ft | 448 kts | 3° |
| 2026-05-05 13:36 | 1.47334 | -79.83086 | 31906 ft | 448 kts | 5° |
| 2026-05-05 13:37 | 1.53601 | -79.82806 | 31904 ft | 448 kts | 5° |
| 2026-05-05 13:37 | 1.59824 | -79.82529 | 31908 ft | 447 kts | 5° |
| 2026-05-05 13:38 | 1.66086 | -79.82252 | 31912 ft | 447 kts | 5° |
| 2026-05-05 13:38 | 1.72335 | -79.81974 | 31910 ft | 449 kts | 5° |
| 2026-05-05 13:39 | 1.78585 | -79.81696 | 31912 ft | 450 kts | 5° |
| 2026-05-05 13:39 | 1.84858 | -79.81418 | 31917 ft | 450 kts | 5° |
| 2026-05-05 13:40 | 1.91126 | -79.81140 | 31924 ft | 451 kts | 5° |
| 2026-05-05 13:40 | 1.97444 | -79.80859 | 31924 ft | 451 kts | 5° |
| 2026-05-05 13:41 | 2.03716 | -79.80582 | 31923 ft | 450 kts | 5° |
| 2026-05-05 13:41 | 2.09971 | -79.80303 | 31925 ft | 451 kts | 5° |
| 2026-05-05 13:42 | 2.16287 | -79.80023 | 31925 ft | 452 kts | 5° |
| 2026-05-05 13:42 | 2.22594 | -79.79744 | 31925 ft | 452 kts | 5° |
| 2026-05-05 13:43 | 2.28868 | -79.79465 | 31925 ft | 451 kts | 5° |
| 2026-05-05 13:43 | 2.35156 | -79.79185 | 31924 ft | 452 kts | 5° |
| 2026-05-05 13:44 | 2.41458 | -79.78906 | 31924 ft | 451 kts | 5° |
| 2026-05-05 13:44 | 2.47771 | -79.78625 | 31922 ft | 451 kts | 5° |
| 2026-05-05 13:45 | 2.54051 | -79.78346 | 31924 ft | 451 kts | 5° |
| 2026-05-05 13:45 | 2.60367 | -79.78065 | 31920 ft | 452 kts | 5° |
| 2026-05-05 13:46 | 2.66668 | -79.77786 | 31919 ft | 453 kts | 5° |
| 2026-05-05 13:46 | 2.72980 | -79.77505 | 31915 ft | 452 kts | 5° |
| 2026-05-05 13:47 | 2.79277 | -79.77225 | 31913 ft | 452 kts | 5° |
| 2026-05-05 13:47 | 2.85582 | -79.76945 | 31918 ft | 453 kts | 5° |
| 2026-05-05 13:48 | 2.91889 | -79.76665 | 31921 ft | 453 kts | 5° |
| 2026-05-05 13:48 | 2.98189 | -79.76384 | 31919 ft | 453 kts | 5° |
| 2026-05-05 13:49 | 3.04366 | -79.76110 | 31917 ft | 453 kts | 5° |
| 2026-05-05 13:49 | 3.10719 | -79.75828 | 31918 ft | 453 kts | 5° |
| 2026-05-05 13:50 | 3.17012 | -79.75547 | 31914 ft | 453 kts | 5° |
| 2026-05-05 13:50 | 3.23335 | -79.75267 | 31908 ft | 453 kts | 5° |
| 2026-05-05 13:51 | 3.29676 | -79.74985 | 31901 ft | 453 kts | 5° |
| 2026-05-05 13:51 | 3.35973 | -79.74705 | 31901 ft | 453 kts | 5° |
| 2026-05-05 13:52 | 3.42272 | -79.74424 | 31902 ft | 452 kts | 5° |
| 2026-05-05 13:52 | 3.48604 | -79.74142 | 31904 ft | 453 kts | 5° |
| 2026-05-05 13:53 | 3.54917 | -79.73861 | 31900 ft | 454 kts | 5° |
| 2026-05-05 13:53 | 3.61219 | -79.73581 | 31902 ft | 452 kts | 5° |
| 2026-05-05 13:54 | 3.67561 | -79.73299 | 31903 ft | 452 kts | 5° |
| 2026-05-05 13:54 | 3.73856 | -79.73019 | 31900 ft | 453 kts | 5° |
| 2026-05-05 13:55 | 3.80181 | -79.72736 | 31901 ft | 452 kts | 5° |
| 2026-05-05 13:55 | 3.86447 | -79.72457 | 31902 ft | 453 kts | 5° |
| 2026-05-05 13:56 | 3.92789 | -79.72175 | 31902 ft | 454 kts | 4° |
| 2026-05-05 13:56 | 3.99117 | -79.71893 | 31900 ft | 454 kts | 5° |
| 2026-05-05 13:57 | 4.05444 | -79.71612 | 31905 ft | 454 kts | 5° |
| 2026-05-05 13:57 | 4.11759 | -79.71330 | 31903 ft | 452 kts | 5° |
| 2026-05-05 13:58 | 4.18049 | -79.71049 | 31904 ft | 452 kts | 5° |
| 2026-05-05 13:58 | 4.24363 | -79.70768 | 31902 ft | 453 kts | 5° |
| 2026-05-05 13:59 | 4.33855 | -79.70345 | 31907 ft | 453 kts | 5° |
| 2026-05-05 14:00 | 4.42280 | -79.69969 | 31907 ft | 452 kts | 4° |
| 2026-05-05 14:00 | 4.49625 | -79.69642 | 31914 ft | 452 kts | 4° |
| 2026-05-05 14:01 | 4.55901 | -79.69362 | 31914 ft | 451 kts | 5° |
| 2026-05-05 14:01 | 4.62225 | -79.69079 | 31919 ft | 452 kts | 4° |
| 2026-05-05 14:02 | 4.68537 | -79.68797 | 31924 ft | 453 kts | 4° |
| 2026-05-05 14:02 | 4.74852 | -79.68516 | 31918 ft | 452 kts | 4° |
| 2026-05-05 14:03 | 4.81137 | -79.68235 | 31911 ft | 452 kts | 4° |
| 2026-05-05 14:03 | 4.87429 | -79.67954 | 31910 ft | 451 kts | 4° |
| 2026-05-05 14:04 | 4.93722 | -79.67673 | 31905 ft | 452 kts | 4° |
| 2026-05-05 14:04 | 5.00027 | -79.67391 | 31902 ft | 453 kts | 4° |
| 2026-05-05 14:05 | 5.06361 | -79.67108 | 31903 ft | 452 kts | 4° |
| 2026-05-05 14:05 | 5.12642 | -79.66827 | 31903 ft | 451 kts | 4° |
| 2026-05-05 14:06 | 5.18939 | -79.66576 | 31905 ft | 451 kts | 3° |
| 2026-05-05 14:06 | 5.25206 | -79.66403 | 31907 ft | 452 kts | 3° |
| 2026-05-05 14:07 | 5.31515 | -79.66226 | 31904 ft | 450 kts | 3° |
| 2026-05-05 14:07 | 5.37775 | -79.66050 | 31906 ft | 451 kts | 3° |
| 2026-05-05 14:08 | 5.44074 | -79.65872 | 31904 ft | 451 kts | 3° |
| 2026-05-05 14:08 | 5.50368 | -79.65695 | 31903 ft | 450 kts | 3° |
| 2026-05-05 14:09 | 5.56633 | -79.65518 | 31903 ft | 450 kts | 3° |
| 2026-05-05 14:09 | 5.62935 | -79.65340 | 31904 ft | 450 kts | 3° |
| 2026-05-05 14:10 | 5.69209 | -79.65163 | 31905 ft | 449 kts | 3° |
| 2026-05-05 14:10 | 5.75483 | -79.64986 | 31904 ft | 450 kts | 3° |
| 2026-05-05 14:11 | 5.81737 | -79.64810 | 31904 ft | 450 kts | 2° |
| 2026-05-05 14:11 | 5.88021 | -79.64633 | 31902 ft | 449 kts | 2° |
| 2026-05-05 14:12 | 5.94268 | -79.64456 | 31904 ft | 449 kts | 2° |
| 2026-05-05 14:12 | 6.00544 | -79.64279 | 31902 ft | 449 kts | 2° |
| 2026-05-05 14:13 | 6.06794 | -79.64103 | 31902 ft | 449 kts | 2° |
| 2026-05-05 14:13 | 6.13063 | -79.63926 | 31905 ft | 450 kts | 2° |
| 2026-05-05 14:14 | 6.19363 | -79.63747 | 31904 ft | 450 kts | 2° |
| 2026-05-05 14:14 | 6.25637 | -79.63570 | 31905 ft | 450 kts | 2° |
| 2026-05-05 14:15 | 6.31902 | -79.63393 | 31905 ft | 450 kts | 2° |
| 2026-05-05 14:15 | 6.38156 | -79.63216 | 31904 ft | 450 kts | 2° |
| 2026-05-05 14:16 | 6.44465 | -79.63038 | 31902 ft | 449 kts | 2° |
| 2026-05-05 14:16 | 6.50700 | -79.62862 | 31909 ft | 450 kts | 2° |
| 2026-05-05 14:17 | 6.56973 | -79.62684 | 31910 ft | 449 kts | 2° |
| 2026-05-05 14:17 | 6.63262 | -79.62506 | 31917 ft | 450 kts | 2° |
| 2026-05-05 14:18 | 6.69571 | -79.62328 | 31924 ft | 451 kts | 2° |
| 2026-05-05 14:18 | 6.75842 | -79.62150 | 31924 ft | 451 kts | 2° |
| 2026-05-05 14:19 | 6.82135 | -79.61971 | 31926 ft | 451 kts | 2° |
| 2026-05-05 14:19 | 6.88413 | -79.61794 | 31923 ft | 451 kts | 2° |
| 2026-05-05 14:20 | 6.94734 | -79.61614 | 31921 ft | 450 kts | 2° |
| 2026-05-05 14:20 | 7.01007 | -79.61437 | 31925 ft | 451 kts | 2° |
| 2026-05-05 14:21 | 7.07292 | -79.61259 | 31922 ft | 452 kts | 2° |
| 2026-05-05 14:21 | 7.13620 | -79.61079 | 31927 ft | 452 kts | 2° |
| 2026-05-05 14:22 | 7.19898 | -79.60901 | 31925 ft | 451 kts | 2° |
| 2026-05-05 14:22 | 7.26203 | -79.60722 | 31924 ft | 451 kts | 2° |
| 2026-05-05 14:23 | 7.32502 | -79.60538 | 31925 ft | 450 kts | 2° |
| 2026-05-05 14:23 | 7.38763 | -79.60353 | 31921 ft | 450 kts | 2° |
| 2026-05-05 14:24 | 7.45029 | -79.60169 | 31920 ft | 451 kts | 2° |
| 2026-05-05 14:24 | 7.51314 | -79.59982 | 31918 ft | 450 kts | 2° |
| 2026-05-05 14:25 | 7.57632 | -79.59795 | 31918 ft | 452 kts | 2° |
| 2026-05-05 14:25 | 7.63911 | -79.59610 | 31911 ft | 451 kts | 2° |
| 2026-05-05 14:26 | 7.70196 | -79.59424 | 31903 ft | 451 kts | 2° |
| 2026-05-05 14:26 | 7.76518 | -79.59237 | 31904 ft | 451 kts | 2° |
| 2026-05-05 14:27 | 7.82781 | -79.59051 | 31904 ft | 451 kts | 2° |
| 2026-05-05 14:27 | 7.89064 | -79.58865 | 31906 ft | 451 kts | 2° |
| 2026-05-05 14:28 | 7.95357 | -79.58679 | 31904 ft | 451 kts | 2° |
| 2026-05-05 14:28 | 8.01647 | -79.58492 | 31903 ft | 451 kts | 2° |
| 2026-05-05 14:29 | 8.07989 | -79.58305 | 31903 ft | 453 kts | 2° |
| 2026-05-05 14:29 | 8.14272 | -79.58118 | 31904 ft | 452 kts | 2° |
| 2026-05-05 14:30 | 8.20583 | -79.57931 | 31904 ft | 451 kts | 2° |
| 2026-05-05 14:30 | 8.26858 | -79.57745 | 31905 ft | 450 kts | 2° |
| 2026-05-05 14:31 | 8.33133 | -79.57558 | 31904 ft | 450 kts | 2° |
| 2026-05-05 14:31 | 8.39436 | -79.57372 | 31904 ft | 451 kts | 2° |
| 2026-05-05 14:32 | 8.45729 | -79.57185 | 31905 ft | 451 kts | 2° |
| 2026-05-05 14:32 | 8.52008 | -79.56998 | 31906 ft | 451 kts | 2° |
| 2026-05-05 14:33 | 8.58284 | -79.56812 | 31910 ft | 450 kts | 2° |
| 2026-05-05 14:33 | 8.64560 | -79.56625 | 31911 ft | 450 kts | 2° |
| 2026-05-05 14:34 | 8.70857 | -79.56438 | 31914 ft | 450 kts | 2° |
| 2026-05-05 14:34 | 8.77118 | -79.56264 | 31918 ft | 451 kts | 359° |
| 2026-05-05 14:35 | 8.83357 | -79.57022 | 31923 ft | 452 kts | 351° |
| 2026-05-05 14:35 | 8.89598 | -79.58051 | 31923 ft | 452 kts | 351° |
| 2026-05-05 14:36 | 8.95812 | -79.59099 | 31928 ft | 451 kts | 351° |
| 2026-05-05 14:36 | 9.02012 | -79.60151 | 31932 ft | 451 kts | 350° |
| 2026-05-05 14:37 | 9.08249 | -79.61211 | 31933 ft | 451 kts | 350° |
| 2026-05-05 14:37 | 9.14459 | -79.62268 | 31938 ft | 451 kts | 350° |
| 2026-05-05 14:38 | 9.20678 | -79.63328 | 31943 ft | 453 kts | 350° |
| 2026-05-05 14:38 | 9.26905 | -79.64388 | 31943 ft | 452 kts | 351° |
| 2026-05-05 14:39 | 9.33128 | -79.65449 | 31937 ft | 452 kts | 351° |
| 2026-05-05 14:39 | 9.39349 | -79.66509 | 31933 ft | 452 kts | 351° |
| 2026-05-05 14:40 | 9.45552 | -79.67567 | 31937 ft | 453 kts | 351° |
| 2026-05-05 14:40 | 9.51796 | -79.68632 | 31931 ft | 453 kts | 351° |
| 2026-05-05 14:41 | 9.58015 | -79.69694 | 31927 ft | 452 kts | 351° |
| 2026-05-05 14:41 | 9.64260 | -79.70760 | 31930 ft | 454 kts | 351° |
| 2026-05-05 14:42 | 9.70471 | -79.71820 | 31924 ft | 453 kts | 351° |
| 2026-05-05 14:42 | 9.76736 | -79.72890 | 31924 ft | 453 kts | 350° |
| 2026-05-05 14:43 | 9.82945 | -79.73952 | 31927 ft | 454 kts | 350° |
| 2026-05-05 14:43 | 9.89199 | -79.75021 | 31927 ft | 455 kts | 350° |
| 2026-05-05 14:44 | 9.95444 | -79.76090 | 31923 ft | 455 kts | 350° |
| 2026-05-05 14:44 | 10.01711 | -79.77161 | 31925 ft | 455 kts | 351° |
| 2026-05-05 14:45 | 10.07945 | -79.78229 | 31923 ft | 454 kts | 351° |
| 2026-05-05 14:45 | 10.14187 | -79.79298 | 31924 ft | 454 kts | 351° |
| 2026-05-05 14:46 | 10.20440 | -79.80369 | 31922 ft | 454 kts | 351° |
| 2026-05-05 14:46 | 10.26667 | -79.81435 | 31924 ft | 453 kts | 350° |
| 2026-05-05 14:47 | 10.32903 | -79.82505 | 31926 ft | 452 kts | 350° |
| 2026-05-05 14:47 | 10.39136 | -79.83575 | 31926 ft | 452 kts | 351° |
| 2026-05-05 14:48 | 10.45342 | -79.84621 | 31927 ft | 452 kts | 351° |
| 2026-05-05 14:48 | 10.51595 | -79.85659 | 31925 ft | 452 kts | 351° |
| 2026-05-05 14:49 | 10.57777 | -79.86686 | 31926 ft | 452 kts | 351° |
| 2026-05-05 14:49 | 10.64015 | -79.87722 | 31924 ft | 451 kts | 351° |
| 2026-05-05 14:50 | 10.70231 | -79.88756 | 31926 ft | 449 kts | 351° |
| 2026-05-05 14:50 | 10.76380 | -79.89779 | 31925 ft | 450 kts | 351° |
| 2026-05-05 14:51 | 10.82626 | -79.90819 | 31928 ft | 452 kts | 351° |
| 2026-05-05 14:51 | 10.88811 | -79.91848 | 31932 ft | 450 kts | 351° |
| 2026-05-05 14:52 | 10.95015 | -79.92881 | 31941 ft | 449 kts | 351° |
| 2026-05-05 14:52 | 11.01173 | -79.93907 | 31943 ft | 449 kts | 351° |
| 2026-05-05 14:53 | 11.07348 | -79.94936 | 31942 ft | 449 kts | 351° |
| 2026-05-05 14:53 | 11.13557 | -79.95972 | 31944 ft | 448 kts | 351° |
| 2026-05-05 14:54 | 11.19715 | -79.96999 | 31945 ft | 446 kts | 351° |
| 2026-05-05 14:54 | 11.25863 | -79.98025 | 31944 ft | 447 kts | 351° |
| 2026-05-05 14:55 | 11.32016 | -79.99053 | 31946 ft | 449 kts | 351° |
| 2026-05-05 14:55 | 11.38173 | -80.00082 | 31943 ft | 447 kts | 351° |
| 2026-05-05 14:56 | 11.44342 | -80.01112 | 31946 ft | 447 kts | 351° |
| 2026-05-05 14:56 | 11.50482 | -80.02138 | 31938 ft | 447 kts | 350° |
| 2026-05-05 14:57 | 11.56643 | -80.03169 | 31937 ft | 446 kts | 350° |
| 2026-05-05 14:57 | 11.62786 | -80.04198 | 31933 ft | 446 kts | 350° |
| 2026-05-05 14:58 | 11.68951 | -80.05229 | 31939 ft | 447 kts | 350° |
| 2026-05-05 14:58 | 11.75095 | -80.06258 | 31938 ft | 447 kts | 350° |
| 2026-05-05 14:59 | 11.81242 | -80.07289 | 31940 ft | 446 kts | 350° |
| 2026-05-05 14:59 | 11.87352 | -80.08313 | 31939 ft | 447 kts | 350° |
| 2026-05-05 15:00 | 11.92475 | -80.09172 | 31944 ft | 446 kts | 350° |
| 2026-05-05 15:00 | 11.99667 | -80.10379 | 31946 ft | 447 kts | 350° |
| 2026-05-05 15:01 | 12.05840 | -80.11415 | 31947 ft | 448 kts | 350° |
| 2026-05-05 15:01 | 12.11961 | -80.12444 | 31950 ft | 447 kts | 350° |
| 2026-05-05 15:02 | 12.18113 | -80.13477 | 31949 ft | 445 kts | 350° |
| 2026-05-05 15:02 | 12.24251 | -80.14509 | 31963 ft | 445 kts | 349° |
| 2026-05-05 15:03 | 12.30365 | -80.15537 | 31970 ft | 447 kts | 349° |
| 2026-05-05 15:03 | 12.36504 | -80.16570 | 31968 ft | 446 kts | 349° |
| 2026-05-05 15:04 | 12.42670 | -80.17609 | 31966 ft | 445 kts | 349° |
| 2026-05-05 15:04 | 12.48790 | -80.18639 | 31967 ft | 445 kts | 349° |
| 2026-05-05 15:05 | 12.57939 | -80.20181 | 31966 ft | 444 kts | 349° |
| 2026-05-05 15:06 | 12.64078 | -80.21217 | 31966 ft | 443 kts | 349° |
| 2026-05-05 15:06 | 12.70145 | -80.22240 | 31963 ft | 443 kts | 349° |
| 2026-05-05 15:07 | 12.76248 | -80.23270 | 31957 ft | 441 kts | 349° |
| 2026-05-05 15:07 | 12.82315 | -80.24295 | 31962 ft | 440 kts | 350° |
| 2026-05-05 15:08 | 12.88383 | -80.25320 | 31964 ft | 441 kts | 350° |
| 2026-05-05 15:08 | 12.94442 | -80.26344 | 31964 ft | 441 kts | 350° |
| 2026-05-05 15:09 | 13.00514 | -80.27371 | 31963 ft | 440 kts | 350° |
| 2026-05-05 15:09 | 13.06541 | -80.28391 | 31964 ft | 440 kts | 350° |
| 2026-05-05 15:10 | 13.12581 | -80.29414 | 31971 ft | 439 kts | 350° |
| 2026-05-05 15:10 | 13.18642 | -80.30441 | 31968 ft | 438 kts | 349° |
| 2026-05-05 15:11 | 13.24669 | -80.31462 | 31968 ft | 439 kts | 349° |
| 2026-05-05 15:11 | 13.30718 | -80.32488 | 31967 ft | 440 kts | 349° |
| 2026-05-05 15:12 | 13.36772 | -80.33515 | 31967 ft | 440 kts | 349° |
| 2026-05-05 15:12 | 13.42812 | -80.34540 | 31963 ft | 440 kts | 350° |
| 2026-05-05 15:13 | 13.48878 | -80.35570 | 31961 ft | 438 kts | 349° |
| 2026-05-05 15:13 | 13.54900 | -80.36593 | 31959 ft | 437 kts | 349° |
| 2026-05-05 15:14 | 13.60933 | -80.37618 | 31962 ft | 440 kts | 349° |
| 2026-05-05 15:14 | 13.66970 | -80.38645 | 31955 ft | 440 kts | 349° |
| 2026-05-05 15:15 | 13.73023 | -80.39675 | 31957 ft | 439 kts | 349° |
| 2026-05-05 15:15 | 13.79102 | -80.40710 | 31953 ft | 439 kts | 349° |
| 2026-05-05 15:16 | 13.85123 | -80.41736 | 31951 ft | 438 kts | 349° |
| 2026-05-05 15:16 | 13.91117 | -80.42757 | 31956 ft | 437 kts | 349° |
| 2026-05-05 15:17 | 13.97148 | -80.43786 | 31958 ft | 440 kts | 349° |
| 2026-05-05 15:17 | 14.03224 | -80.44823 | 31955 ft | 440 kts | 349° |
| 2026-05-05 15:18 | 14.09263 | -80.45853 | 31954 ft | 439 kts | 349° |
| 2026-05-05 15:18 | 14.15291 | -80.46883 | 31958 ft | 437 kts | 349° |
| 2026-05-05 15:19 | 14.21303 | -80.47910 | 31958 ft | 437 kts | 349° |
| 2026-05-05 15:19 | 14.27308 | -80.48937 | 31960 ft | 437 kts | 349° |
| 2026-05-05 15:20 | 14.33325 | -80.49966 | 31958 ft | 436 kts | 349° |
| 2026-05-05 15:20 | 14.39330 | -80.50995 | 31962 ft | 437 kts | 349° |
| 2026-05-05 15:21 | 14.45346 | -80.52025 | 31958 ft | 436 kts | 349° |
| 2026-05-05 15:21 | 14.51317 | -80.53048 | 31960 ft | 435 kts | 349° |
| 2026-05-05 15:22 | 14.57303 | -80.54074 | 31961 ft | 435 kts | 349° |
| 2026-05-05 15:22 | 14.63273 | -80.55098 | 31962 ft | 434 kts | 349° |
| 2026-05-05 15:23 | 14.69266 | -80.56127 | 31963 ft | 435 kts | 349° |
| 2026-05-05 15:23 | 14.75234 | -80.57152 | 31960 ft | 435 kts | 349° |
| 2026-05-05 15:24 | 14.81240 | -80.58183 | 31960 ft | 435 kts | 349° |
| 2026-05-05 15:24 | 14.87181 | -80.59206 | 31961 ft | 433 kts | 349° |
| 2026-05-05 15:25 | 14.93144 | -80.60230 | 31962 ft | 433 kts | 349° |
| 2026-05-05 15:25 | 14.99121 | -80.61259 | 31965 ft | 432 kts | 349° |
| 2026-05-05 15:26 | 15.05059 | -80.62285 | 31974 ft | 433 kts | 349° |
| 2026-05-05 15:26 | 15.11029 | -80.63318 | 31975 ft | 433 kts | 349° |
| 2026-05-05 15:27 | 15.16984 | -80.64348 | 31980 ft | 432 kts | 349° |
| 2026-05-05 15:27 | 15.22903 | -80.65372 | 31989 ft | 433 kts | 349° |
| 2026-05-05 15:28 | 15.28865 | -80.66405 | 31991 ft | 433 kts | 349° |
| 2026-05-05 15:28 | 15.34818 | -80.67436 | 31992 ft | 433 kts | 349° |
| 2026-05-05 15:29 | 15.40776 | -80.68469 | 31988 ft | 432 kts | 349° |
| 2026-05-05 15:29 | 15.46732 | -80.69503 | 31988 ft | 432 kts | 349° |
| 2026-05-05 15:30 | 15.52658 | -80.70531 | 31990 ft | 433 kts | 349° |
| 2026-05-05 15:30 | 15.58599 | -80.71564 | 31989 ft | 432 kts | 349° |
| 2026-05-05 15:31 | 15.64581 | -80.72604 | 31988 ft | 433 kts | 349° |
| 2026-05-05 15:31 | 15.70516 | -80.73635 | 31988 ft | 434 kts | 349° |
| 2026-05-05 15:32 | 15.76476 | -80.74672 | 31987 ft | 433 kts | 349° |
| 2026-05-05 15:32 | 15.82457 | -80.75713 | 31987 ft | 432 kts | 349° |
| 2026-05-05 15:33 | 15.88385 | -80.76747 | 31987 ft | 432 kts | 349° |
| 2026-05-05 15:33 | 15.94309 | -80.77779 | 31987 ft | 432 kts | 349° |
| 2026-05-05 15:34 | 16.00285 | -80.78822 | 31987 ft | 433 kts | 349° |
| 2026-05-05 15:34 | 16.06257 | -80.79864 | 31987 ft | 434 kts | 349° |
| 2026-05-05 15:35 | 16.12204 | -80.80903 | 31991 ft | 432 kts | 350° |
| 2026-05-05 15:35 | 16.18118 | -80.81936 | 31992 ft | 432 kts | 349° |
| 2026-05-05 15:36 | 16.24061 | -80.82975 | 31994 ft | 432 kts | 349° |
| 2026-05-05 15:36 | 16.30020 | -80.84017 | 31997 ft | 432 kts | 350° |
| 2026-05-05 15:37 | 16.35958 | -80.85057 | 31994 ft | 434 kts | 350° |
| 2026-05-05 15:37 | 16.41943 | -80.86105 | 31995 ft | 433 kts | 350° |
| 2026-05-05 15:38 | 16.47873 | -80.87144 | 31996 ft | 431 kts | 350° |
| 2026-05-05 15:38 | 16.53823 | -80.88187 | 31998 ft | 432 kts | 350° |
| 2026-05-05 15:39 | 16.59762 | -80.89230 | 31994 ft | 431 kts | 350° |
| 2026-05-05 15:39 | 16.65650 | -80.90264 | 31998 ft | 431 kts | 350° |
| 2026-05-05 15:40 | 16.71597 | -80.91309 | 32003 ft | 433 kts | 350° |
| 2026-05-05 15:40 | 16.77571 | -80.92359 | 32001 ft | 432 kts | 350° |
| 2026-05-05 15:41 | 16.83486 | -80.93400 | 32003 ft | 432 kts | 350° |
| 2026-05-05 15:41 | 16.89433 | -80.94447 | 32003 ft | 431 kts | 350° |
| 2026-05-05 15:42 | 16.95361 | -80.95491 | 32003 ft | 430 kts | 350° |
| 2026-05-05 15:42 | 17.01257 | -80.96530 | 32008 ft | 432 kts | 350° |
| 2026-05-05 15:43 | 17.07223 | -80.97582 | 32003 ft | 431 kts | 350° |
| 2026-05-05 15:43 | 17.13139 | -80.98627 | 32011 ft | 431 kts | 350° |
| 2026-05-05 15:44 | 17.19078 | -80.99675 | 32011 ft | 431 kts | 350° |
| 2026-05-05 15:44 | 17.24969 | -81.00716 | 32009 ft | 428 kts | 350° |
| 2026-05-05 15:45 | 17.30860 | -81.01759 | 32013 ft | 429 kts | 350° |
| 2026-05-05 15:45 | 17.36749 | -81.02801 | 32009 ft | 429 kts | 350° |
| 2026-05-05 15:46 | 17.42633 | -81.03842 | 32011 ft | 429 kts | 350° |
| 2026-05-05 15:46 | 17.48503 | -81.04882 | 32012 ft | 428 kts | 350° |
| 2026-05-05 15:47 | 17.54394 | -81.05926 | 32009 ft | 429 kts | 350° |
| 2026-05-05 15:47 | 17.60291 | -81.06973 | 32008 ft | 428 kts | 350° |
| 2026-05-05 15:48 | 17.66194 | -81.08021 | 32008 ft | 427 kts | 350° |
| 2026-05-05 15:48 | 17.72033 | -81.09058 | 32007 ft | 425 kts | 349° |
| 2026-05-05 15:49 | 17.77846 | -81.10091 | 32006 ft | 425 kts | 350° |
| 2026-05-05 15:49 | 17.83713 | -81.11136 | 32005 ft | 425 kts | 349° |
| 2026-05-05 15:50 | 17.89552 | -81.12175 | 32002 ft | 424 kts | 350° |
| 2026-05-05 15:50 | 17.95390 | -81.13215 | 32006 ft | 425 kts | 350° |
| 2026-05-05 15:51 | 18.01212 | -81.14253 | 32005 ft | 423 kts | 350° |
| 2026-05-05 15:51 | 18.07019 | -81.15288 | 32014 ft | 423 kts | 350° |
| 2026-05-05 15:52 | 18.12845 | -81.16328 | 32013 ft | 425 kts | 350° |
| 2026-05-05 15:52 | 18.18693 | -81.17373 | 32016 ft | 425 kts | 350° |
| 2026-05-05 15:53 | 18.24532 | -81.18416 | 32017 ft | 425 kts | 350° |
| 2026-05-05 15:53 | 18.30363 | -81.19459 | 32016 ft | 424 kts | 349° |
| 2026-05-05 15:54 | 18.36160 | -81.20496 | 32018 ft | 422 kts | 349° |
| 2026-05-05 15:54 | 18.41970 | -81.21537 | 32020 ft | 422 kts | 350° |
| 2026-05-05 15:55 | 18.47803 | -81.22582 | 32027 ft | 425 kts | 349° |
| 2026-05-05 15:55 | 18.53637 | -81.23628 | 32018 ft | 424 kts | 350° |
| 2026-05-05 15:56 | 18.59458 | -81.24673 | 32024 ft | 423 kts | 350° |
| 2026-05-05 15:56 | 18.65282 | -81.25719 | 32028 ft | 423 kts | 350° |
| 2026-05-05 15:57 | 18.71062 | -81.26758 | 32026 ft | 423 kts | 350° |
| 2026-05-05 15:57 | 18.76873 | -81.27803 | 32025 ft | 424 kts | 349° |
| 2026-05-05 15:58 | 18.82724 | -81.28856 | 32020 ft | 425 kts | 349° |
| 2026-05-05 15:58 | 18.88520 | -81.29900 | 32023 ft | 423 kts | 349° |
| 2026-05-05 15:59 | 18.94354 | -81.30951 | 32027 ft | 423 kts | 350° |
| 2026-05-05 15:59 | 19.00154 | -81.31997 | 32024 ft | 422 kts | 349° |
| 2026-05-05 16:00 | 19.05943 | -81.33042 | 32030 ft | 423 kts | 350° |
| 2026-05-05 16:00 | 19.11777 | -81.34095 | 32029 ft | 423 kts | 350° |
| 2026-05-05 16:01 | 19.17578 | -81.35143 | 32031 ft | 423 kts | 349° |
| 2026-05-05 16:01 | 19.23395 | -81.36195 | 32037 ft | 423 kts | 349° |
| 2026-05-05 16:02 | 19.29205 | -81.37182 | 32033 ft | 421 kts | 354° |
| 2026-05-05 16:02 | 19.35069 | -81.37607 | 32039 ft | 423 kts | 355° |
| 2026-05-05 16:03 | 19.40960 | -81.38020 | 32032 ft | 424 kts | 355° |
| 2026-05-05 16:03 | 19.46873 | -81.38428 | 32028 ft | 422 kts | 355° |
| 2026-05-05 16:04 | 19.52736 | -81.38831 | 32028 ft | 423 kts | 355° |
| 2026-05-05 16:04 | 19.58622 | -81.39235 | 32026 ft | 423 kts | 355° |
| 2026-05-05 16:05 | 19.64477 | -81.39637 | 32027 ft | 421 kts | 355° |
| 2026-05-05 16:05 | 19.70319 | -81.40038 | 32022 ft | 420 kts | 355° |
| 2026-05-05 16:06 | 19.76202 | -81.40442 | 32017 ft | 422 kts | 355° |
| 2026-05-05 16:06 | 19.82061 | -81.40845 | 32013 ft | 421 kts | 355° |
| 2026-05-05 16:07 | 19.87897 | -81.41248 | 32019 ft | 420 kts | 355° |
| 2026-05-05 16:07 | 19.93739 | -81.41649 | 32015 ft | 421 kts | 355° |
| 2026-05-05 16:08 | 19.99618 | -81.42055 | 32016 ft | 420 kts | 355° |
| 2026-05-05 16:08 | 20.05457 | -81.42458 | 32007 ft | 420 kts | 355° |
| 2026-05-05 16:09 | 20.11312 | -81.42862 | 32013 ft | 422 kts | 355° |
| 2026-05-05 16:09 | 20.17168 | -81.43266 | 32010 ft | 421 kts | 355° |
| 2026-05-05 16:10 | 20.23022 | -81.43671 | 32013 ft | 417 kts | 355° |
| 2026-05-05 16:10 | 20.28819 | -81.44073 | 32012 ft | 418 kts | 355° |
| 2026-05-05 16:11 | 20.34642 | -81.44476 | 32015 ft | 420 kts | 355° |
| 2026-05-05 16:12 | 20.46290 | -81.45283 | 32013 ft | 419 kts | 355° |
| 2026-05-05 16:13 | 20.60845 | -81.46294 | 32013 ft | 417 kts | 355° |
| 2026-05-05 16:13 | 20.66673 | -81.46699 | 32011 ft | 418 kts | 355° |
| 2026-05-05 16:14 | 20.78282 | -81.47508 | 32003 ft | 418 kts | 355° |
| 2026-05-05 16:15 | 20.89861 | -81.48315 | 32005 ft | 417 kts | 354° |
| 2026-05-05 16:16 | 21.01509 | -81.49128 | 32001 ft | 416 kts | 354° |
| 2026-05-05 16:17 | 21.10182 | -81.49734 | 31999 ft | 416 kts | 354° |
| 2026-05-05 16:18 | 21.18874 | -81.50343 | 32009 ft | 417 kts | 354° |
| 2026-05-05 16:19 | 21.27563 | -81.50952 | 32012 ft | 416 kts | 354° |
| 2026-05-05 16:19 | 21.36246 | -81.51561 | 32010 ft | 416 kts | 354° |
| 2026-05-05 16:20 | 21.47870 | -81.52378 | 32012 ft | 417 kts | 354° |
| 2026-05-05 16:22 | 21.62408 | -81.52988 | 32028 ft | 421 kts | 3° |
| 2026-05-05 16:23 | 21.74070 | -81.51582 | 32007 ft | 421 kts | 3° |
| 2026-05-05 16:23 | 21.82806 | -81.50500 | 32013 ft | 421 kts | 3° |
| 2026-05-05 16:24 | 21.88679 | -81.49769 | 32011 ft | 422 kts | 3° |
| 2026-05-05 16:25 | 21.97442 | -81.48676 | 32011 ft | 421 kts | 3° |
| 2026-05-05 16:25 | 22.06192 | -81.47583 | 32018 ft | 423 kts | 3° |
| 2026-05-05 16:26 | 22.17889 | -81.46121 | 32031 ft | 422 kts | 3° |
| 2026-05-05 16:27 | 22.23749 | -81.45387 | 32029 ft | 423 kts | 3° |
| 2026-05-05 16:27 | 22.29611 | -81.44653 | 32029 ft | 422 kts | 3° |
| 2026-05-05 16:28 | 22.35430 | -81.43922 | 32025 ft | 421 kts | 3° |
| 2026-05-05 16:28 | 22.41246 | -81.43192 | 32023 ft | 420 kts | 2° |
| 2026-05-05 16:29 | 22.47074 | -81.42461 | 32021 ft | 421 kts | 3° |
| 2026-05-05 16:29 | 22.52916 | -81.41727 | 32021 ft | 422 kts | 3° |
| 2026-05-05 16:30 | 22.58750 | -81.40993 | 32024 ft | 423 kts | 3° |
| 2026-05-05 16:30 | 22.64600 | -81.40255 | 32021 ft | 422 kts | 2° |
| 2026-05-05 16:31 | 22.70427 | -81.39535 | 32021 ft | 420 kts | 2° |
| 2026-05-05 16:31 | 22.76267 | -81.38813 | 32016 ft | 421 kts | 2° |
| 2026-05-05 16:32 | 22.82099 | -81.38092 | 32018 ft | 422 kts | 2° |
| 2026-05-05 16:32 | 22.87921 | -81.37371 | 32024 ft | 421 kts | 2° |
| 2026-05-05 16:33 | 22.93784 | -81.36645 | 32025 ft | 421 kts | 2° |
| 2026-05-05 16:33 | 22.99605 | -81.35922 | 32032 ft | 420 kts | 2° |
| 2026-05-05 16:34 | 23.05374 | -81.35206 | 32032 ft | 419 kts | 2° |
| 2026-05-05 16:34 | 23.11199 | -81.34483 | 32034 ft | 421 kts | 2° |
| 2026-05-05 16:35 | 23.17078 | -81.33753 | 32044 ft | 429 kts | 2° |
| 2026-05-05 16:35 | 23.23088 | -81.33004 | 32037 ft | 441 kts | 2° |
| 2026-05-05 16:36 | 23.29224 | -81.32235 | 32029 ft | 440 kts | 2° |
| 2026-05-05 16:36 | 23.35278 | -81.31477 | 32031 ft | 437 kts | 2° |
| 2026-05-05 16:37 | 23.41351 | -81.30718 | 32030 ft | 439 kts | 2° |
| 2026-05-05 16:37 | 23.47448 | -81.29953 | 32026 ft | 439 kts | 2° |
| 2026-05-05 16:38 | 23.53483 | -81.29195 | 32025 ft | 438 kts | 2° |
| 2026-05-05 16:38 | 23.59554 | -81.28434 | 32025 ft | 438 kts | 2° |
| 2026-05-05 16:39 | 23.65625 | -81.27671 | 32024 ft | 438 kts | 2° |
| 2026-05-05 16:39 | 23.71674 | -81.26910 | 32024 ft | 438 kts | 2° |
| 2026-05-05 16:40 | 23.77756 | -81.26144 | 32022 ft | 439 kts | 2° |
| 2026-05-05 16:40 | 23.83841 | -81.25377 | 32022 ft | 438 kts | 2° |
| 2026-05-05 16:41 | 23.88620 | -81.24774 | 32023 ft | 436 kts | 2° |
| 2026-05-05 16:41 | 23.94653 | -81.24013 | 32023 ft | 436 kts | 1° |
| 2026-05-05 16:42 | 24.00677 | -81.23245 | 31924 ft | 439 kts | 2° |
| 2026-05-05 16:42 | 24.03764 | -81.22801 | 31401 ft | 444 kts | 2° |
| 2026-05-05 16:42 | 24.06808 | -81.22363 | 30924 ft | 440 kts | 3° |
| 2026-05-05 16:43 | 24.09805 | -81.21931 | 30451 ft | 435 kts | 2° |
| 2026-05-05 16:43 | 24.12804 | -81.21499 | 29999 ft | 432 kts | 2° |
| 2026-05-05 16:43 | 24.15805 | -81.21068 | 29557 ft | 434 kts | 3° |
| 2026-05-05 16:43 | 24.18827 | -81.20634 | 29111 ft | 438 kts | 3° |
| 2026-05-05 16:44 | 24.21856 | -81.20199 | 28667 ft | 440 kts | 3° |
| 2026-05-05 16:44 | 24.24868 | -81.19765 | 28222 ft | 440 kts | 3° |
| 2026-05-05 16:44 | 24.27900 | -81.19326 | 27791 ft | 437 kts | 3° |
| 2026-05-05 16:44 | 24.30930 | -81.18889 | 27331 ft | 434 kts | 3° |
| 2026-05-05 16:45 | 24.33907 | -81.18459 | 26872 ft | 430 kts | 3° |
| 2026-05-05 16:45 | 24.36857 | -81.18034 | 26418 ft | 427 kts | 3° |
| 2026-05-05 16:45 | 24.39824 | -81.17606 | 25967 ft | 426 kts | 2° |
| 2026-05-05 16:45 | 24.42752 | -81.17182 | 25524 ft | 425 kts | 2° |
| 2026-05-05 16:46 | 24.45668 | -81.16762 | 25074 ft | 423 kts | 2° |
| 2026-05-05 16:46 | 24.48588 | -81.16340 | 24630 ft | 422 kts | 2° |
| 2026-05-05 16:46 | 24.51517 | -81.15916 | 24183 ft | 420 kts | 2° |
| 2026-05-05 16:46 | 24.54407 | -81.15498 | 23740 ft | 417 kts | 2° |
| 2026-05-05 16:47 | 24.57262 | -81.15082 | 23303 ft | 415 kts | 3° |
| 2026-05-05 16:47 | 24.60082 | -81.14400 | 22884 ft | 419 kts | 12° |
| 2026-05-05 16:47 | 24.62870 | -81.13409 | 22448 ft | 418 kts | 12° |
| 2026-05-05 16:47 | 24.65626 | -81.12443 | 22024 ft | 419 kts | 13° |
| 2026-05-05 16:48 | 24.68379 | -81.11459 | 21584 ft | 413 kts | 13° |
| 2026-05-05 16:48 | 24.71107 | -81.10484 | 21145 ft | 409 kts | 13° |
| 2026-05-05 16:48 | 24.73799 | -81.09517 | 20719 ft | 406 kts | 13° |
| 2026-05-05 16:48 | 24.76477 | -81.08555 | 20297 ft | 401 kts | 13° |
| 2026-05-05 16:49 | 24.79134 | -81.07599 | 19874 ft | 398 kts | 13° |
| 2026-05-05 16:49 | 24.81744 | -81.06660 | 19456 ft | 397 kts | 13° |
| 2026-05-05 16:49 | 24.84372 | -81.05713 | 19057 ft | 391 kts | 13° |
| 2026-05-05 16:49 | 24.86952 | -81.04783 | 18654 ft | 389 kts | 13° |
| 2026-05-05 16:50 | 24.89508 | -81.03861 | 18241 ft | 385 kts | 13° |
| 2026-05-05 16:50 | 24.92026 | -81.02953 | 17835 ft | 382 kts | 13° |
| 2026-05-05 16:50 | 24.94518 | -81.01947 | 17678 ft | 378 kts | 21° |
| 2026-05-05 16:50 | 24.96476 | -81.00590 | 17463 ft | 390 kts | 34° |
| 2026-05-05 16:51 | 24.98391 | -80.98381 | 17183 ft | 403 kts | 49° |
| 2026-05-05 16:51 | 24.99916 | -80.95781 | 16877 ft | 405 kts | 53° |
| 2026-05-05 16:51 | 25.01433 | -80.93175 | 16546 ft | 400 kts | 52° |
| 2026-05-05 16:51 | 25.02942 | -80.90610 | 16218 ft | 398 kts | 52° |
| 2026-05-05 16:52 | 25.04458 | -80.88061 | 15887 ft | 397 kts | 52° |
| 2026-05-05 16:52 | 25.05975 | -80.85530 | 15569 ft | 395 kts | 52° |
| 2026-05-05 16:52 | 25.07488 | -80.83019 | 15258 ft | 391 kts | 52° |
| 2026-05-05 16:52 | 25.08995 | -80.80544 | 14919 ft | 392 kts | 52° |
| 2026-05-05 16:53 | 25.10538 | -80.78042 | 14458 ft | 390 kts | 52° |
| 2026-05-05 16:53 | 25.12080 | -80.75568 | 14014 ft | 387 kts | 52° |
| 2026-05-05 16:53 | 25.13616 | -80.73121 | 13593 ft | 385 kts | 52° |
| 2026-05-05 16:53 | 25.15143 | -80.70724 | 13155 ft | 383 kts | 52° |
| 2026-05-05 16:54 | 25.16676 | -80.68338 | 12723 ft | 381 kts | 52° |
| 2026-05-05 16:54 | 25.18205 | -80.65976 | 12302 ft | 379 kts | 52° |
| 2026-05-05 16:54 | 25.19747 | -80.63608 | 11880 ft | 376 kts | 52° |
| 2026-05-05 16:54 | 25.21264 | -80.61285 | 11451 ft | 374 kts | 52° |
| 2026-05-05 16:55 | 25.22770 | -80.58977 | 11027 ft | 373 kts | 52° |
| 2026-05-05 16:55 | 25.24293 | -80.56647 | 10600 ft | 369 kts | 52° |
| 2026-05-05 16:55 | 25.25838 | -80.54412 | 10182 ft | 366 kts | 45° |
| 2026-05-05 16:55 | 25.27588 | -80.52428 | 9815 ft | 358 kts | 43° |
| 2026-05-05 16:56 | 25.29297 | -80.50515 | 9875 ft | 339 kts | 43° |
| 2026-05-05 16:56 | 25.30919 | -80.48701 | 9853 ft | 325 kts | 43° |
| 2026-05-05 16:56 | 25.32463 | -80.46963 | 9817 ft | 311 kts | 43° |
| 2026-05-05 16:56 | 25.33978 | -80.45253 | 9568 ft | 307 kts | 43° |
| 2026-05-05 16:57 | 25.35457 | -80.43594 | 9187 ft | 307 kts | 43° |
| 2026-05-05 16:57 | 25.36954 | -80.41916 | 8841 ft | 305 kts | 42° |
| 2026-05-05 16:57 | 25.38436 | -80.40256 | 8592 ft | 301 kts | 43° |
| 2026-05-05 16:57 | 25.39918 | -80.38609 | 8282 ft | 300 kts | 42° |
| 2026-05-05 16:58 | 25.41384 | -80.36980 | 7970 ft | 298 kts | 43° |
| 2026-05-05 16:58 | 25.42840 | -80.35375 | 7701 ft | 295 kts | 42° |
| 2026-05-05 16:58 | 25.44295 | -80.33779 | 7386 ft | 293 kts | 43° |
| 2026-05-05 16:58 | 25.45743 | -80.32198 | 7066 ft | 292 kts | 43° |
| 2026-05-05 16:59 | 25.47185 | -80.30625 | 6777 ft | 290 kts | 43° |
| 2026-05-05 16:59 | 25.48587 | -80.29098 | 6446 ft | 290 kts | 43° |
| 2026-05-05 16:59 | 25.49971 | -80.27594 | 6168 ft | 287 kts | 43° |
| 2026-05-05 16:59 | 25.51396 | -80.26058 | 5868 ft | 285 kts | 43° |
| 2026-05-05 17:00 | 25.52818 | -80.24526 | 5523 ft | 285 kts | 43° |
| 2026-05-05 17:00 | 25.54235 | -80.23001 | 5234 ft | 283 kts | 43° |
| 2026-05-05 17:00 | 25.55639 | -80.21493 | 4954 ft | 280 kts | 43° |
| 2026-05-05 17:00 | 25.57056 | -80.19979 | 4626 ft | 280 kts | 42° |
| 2026-05-05 17:01 | 25.58453 | -80.18483 | 4344 ft | 277 kts | 43° |
| 2026-05-05 17:01 | 25.59828 | -80.17020 | 4072 ft | 274 kts | 43° |
| 2026-05-05 17:01 | 25.61187 | -80.15576 | 3978 ft | 264 kts | 43° |
| 2026-05-05 17:01 | 25.62475 | -80.14198 | 3930 ft | 253 kts | 43° |
| 2026-05-05 17:02 | 25.63722 | -80.12859 | 3853 ft | 242 kts | 43° |
| 2026-05-05 17:02 | 25.64905 | -80.11587 | 3901 ft | 225 kts | 43° |
| 2026-05-05 17:02 | 25.66005 | -80.10456 | 3860 ft | 212 kts | 33° |
| 2026-05-05 17:02 | 25.67363 | -80.09934 | 3606 ft | 206 kts | 357° |
| 2026-05-05 17:03 | 25.68707 | -80.10393 | 3334 ft | 202 kts | 326° |
| 2026-05-05 17:03 | 25.69832 | -80.11280 | 3117 ft | 199 kts | 322° |
| 2026-05-05 17:03 | 25.70720 | -80.12440 | 2969 ft | 193 kts | 299° |
| 2026-05-05 17:03 | 25.71382 | -80.13728 | 2880 ft | 197 kts | 301° |
| 2026-05-05 17:04 | 25.72083 | -80.15039 | 2631 ft | 199 kts | 300° |
| 2026-05-05 17:04 | 25.72761 | -80.16335 | 2323 ft | 185 kts | 301° |
| 2026-05-05 17:04 | 25.73379 | -80.17523 | 2053 ft | 176 kts | 301° |
| 2026-05-05 17:04 | 25.73970 | -80.18662 | 1928 ft | 160 kts | 301° |
| 2026-05-05 17:05 | 25.74514 | -80.19716 | 1675 ft | 157 kts | 301° |
| 2026-05-05 17:05 | 25.75049 | -80.20752 | 1458 ft | 154 kts | 301° |
| 2026-05-05 17:05 | 25.75585 | -80.21791 | 1254 ft | 155 kts | 301° |
| 2026-05-05 17:05 | 25.76120 | -80.22828 | 1052 ft | 155 kts | 301° |
| 2026-05-05 17:06 | 25.76661 | -80.23878 | 849 ft | 156 kts | 301° |
| 2026-05-05 17:06 | 25.77206 | -80.24937 | 653 ft | 160 kts | 301° |
| 2026-05-05 17:06 | 25.77762 | -80.26007 | 442 ft | 159 kts | 301° |
| 2026-05-05 17:06 | 25.78312 | -80.27071 | 222 ft | 158 kts | 301° |
| 2026-05-05 17:07 | 25.78853 | -80.28124 | 26 ft | 155 kts | 301° |
| 2026-05-05 17:07 | 25.79348 | -80.29089 | 16 ft | 117 kts | 300° |
| 2026-05-05 17:07 | 25.79632 | -80.29645 | 16 ft | 54 kts | 301° |
| 2026-05-05 17:07 | 25.79784 | -80.29806 | 16 ft | 11 kts | 4° |
| 2026-05-05 17:08 | 25.79809 | -80.29751 | 16 ft | 10 kts | 110° |
| 2026-05-05 17:08 | 25.79772 | -80.29675 | 16 ft | 11 kts | 120° |
| 2026-05-05 17:08 | 25.79729 | -80.29591 | 16 ft | 13 kts | 120° |
| 2026-05-05 17:08 | 25.79679 | -80.29492 | 16 ft | 16 kts | 119° |
| 2026-05-05 17:09 | 25.79618 | -80.29376 | 16 ft | 18 kts | 119° |
| 2026-05-05 17:09 | 25.79551 | -80.29243 | 16 ft | 20 kts | 118° |
| 2026-05-05 17:09 | 25.79480 | -80.29104 | 16 ft | 9 kts | 119° |
| 2026-05-05 17:09 | 25.79479 | -80.29102 | 16 ft | 0 kts | 120° |
| 2026-05-05 17:16 | 25.79471 | -80.29086 | 16 ft | 7 kts | 120° |
| 2026-05-05 17:16 | 25.79436 | -80.29019 | 16 ft | 10 kts | 119° |
| 2026-05-05 17:17 | 25.79400 | -80.28946 | 16 ft | 13 kts | 119° |
| 2026-05-05 17:17 | 25.79342 | -80.28838 | 16 ft | 19 kts | 120° |
| 2026-05-05 17:17 | 25.79269 | -80.28690 | 16 ft | 23 kts | 117° |
| 2026-05-05 17:17 | 25.79191 | -80.28533 | 16 ft | 22 kts | 120° |
| 2026-05-05 17:18 | 25.79114 | -80.28406 | 16 ft | 16 kts | 126° |
| 2026-05-05 17:18 | 25.79059 | -80.28307 | 16 ft | 16 kts | 119° |
| 2026-05-05 17:18 | 25.78990 | -80.28177 | 16 ft | 22 kts | 121° |
| 2026-05-05 17:18 | 25.78911 | -80.28020 | 16 ft | 22 kts | 120° |
| 2026-05-05 17:19 | 25.78857 | -80.27863 | 16 ft | 22 kts | 85° |
| 2026-05-05 17:19 | 25.78880 | -80.27696 | 16 ft | 21 kts | 89° |
| 2026-05-05 17:19 | 25.78902 | -80.27540 | 16 ft | 20 kts | 76° |
| 2026-05-05 17:19 | 25.78924 | -80.27391 | 16 ft | 17 kts | 77° |
| 2026-05-05 17:20 | 25.78986 | -80.27341 | 16 ft | 8 kts | 1° |
| 2026-05-05 17:20 | 25.79005 | -80.27341 | 16 ft | 0 kts | 1° |